<?xml version="1.0" encoding="UTF-8" standalone="no" ?><gpx xmlns="http://www.topografix.com/GPX/1/1" xmlns:gpxx="http://www.garmin.com/xmlschemas/GpxExtensions/v3" xmlns:gpxtrkx="http://www.garmin.com/xmlschemas/TrackStatsExtension/v1" xmlns:wptx1="http://www.garmin.com/xmlschemas/WaypointExtension/v1" xmlns:gpxtpx="http://www.garmin.com/xmlschemas/TrackPointExtension/v1" creator="GPSMAP 62" version="1.1" xmlns:xsi="http://www.w3.org/2001/XMLSchema-instance" xsi:schemaLocation="http://www.topografix.com/GPX/1/1 http://www.topografix.com/GPX/1/1/gpx.xsd http://www.garmin.com/xmlschemas/GpxExtensions/v3 http://www8.garmin.com/xmlschemas/GpxExtensionsv3.xsd http://www.garmin.com/xmlschemas/TrackStatsExtension/v1 http://www8.garmin.com/xmlschemas/TrackStatsExtension.xsd http://www.garmin.com/xmlschemas/WaypointExtension/v1 http://www8.garmin.com/xmlschemas/WaypointExtensionv1.xsd http://www.garmin.com/xmlschemas/TrackPointExtension/v1 http://www.garmin.com/xmlschemas/TrackPointExtensionv1.xsd"><metadata><link href="http://www.garmin.com"><text>Garmin International</text></link><time>2026-08-31T23:08:50Z</time></metadata><trk><name>2026-09-01 02:08:46</name><extensions><gpxx:TrackExtension><gpxx:DisplayColor>Cyan</gpxx:DisplayColor></gpxx:TrackExtension><gpxtrkx:TrackStatsExtension><gpxtrkx:Distance>8659</gpxtrkx:Distance><gpxtrkx:TotalElapsedTime>27126</gpxtrkx:TotalElapsedTime><gpxtrkx:MovingTime>8703</gpxtrkx:MovingTime><gpxtrkx:StoppedTime>6718</gpxtrkx:StoppedTime><gpxtrkx:MovingSpeed>1</gpxtrkx:MovingSpeed><gpxtrkx:MaxSpeed>257</gpxtrkx:MaxSpeed><gpxtrkx:MaxElevation>10528</gpxtrkx:MaxElevation><gpxtrkx:MinElevation>-1512</gpxtrkx:MinElevation><gpxtrkx:Ascent>113926</gpxtrkx:Ascent><gpxtrkx:Descent>113620</gpxtrkx:Descent><gpxtrkx:AvgAscentRate>0</gpxtrkx:AvgAscentRate><gpxtrkx:MaxAscentRate>17</gpxtrkx:MaxAscentRate><gpxtrkx:AvgDescentRate>0</gpxtrkx:AvgDescentRate><gpxtrkx:MaxDescentRate>-14</gpxtrkx:MaxDescentRate></gpxtrkx:TrackStatsExtension></extensions><trkseg><trkpt lat="59.4806910865" lon="31.0213855002"><ele>40.51</ele><time>2026-08-31T15:36:44Z</time></trkpt><trkpt lat="59.4807493407" lon="31.0216225404"><ele>56.86</ele><time>2026-08-31T15:37:03Z</time></trkpt><trkpt lat="59.4807553757" lon="31.0215839837"><ele>55.41</ele><time>2026-08-31T15:37:20Z</time></trkpt><trkpt lat="59.4807964470" lon="31.0215760209"><ele>56.37</ele><time>2026-08-31T15:37:38Z</time></trkpt><trkpt lat="59.4808388595" lon="31.0215219576"><ele>54.93</ele><time>2026-08-31T15:37:51Z</time></trkpt><trkpt lat="59.4808459003" lon="31.0215108935"><ele>54.93</ele><time>2026-08-31T15:37:52Z</time></trkpt><trkpt lat="59.4809076749" lon="31.0214144178"><ele>54.93</ele><time>2026-08-31T15:37:58Z</time></trkpt><trkpt lat="59.4809345808" lon="31.0213418305"><ele>54.93</ele><time>2026-08-31T15:38:02Z</time></trkpt><trkpt lat="59.4809383526" lon="31.0212964006"><ele>54.93</ele><time>2026-08-31T15:38:04Z</time></trkpt><trkpt lat="59.4810152147" lon="31.0211130884"><ele>55.41</ele><time>2026-08-31T15:38:17Z</time></trkpt><trkpt lat="59.4810898975" lon="31.0209474619"><ele>55.89</ele><time>2026-08-31T15:38:31Z</time></trkpt><trkpt lat="59.4811546896" lon="31.0208196379"><ele>56.86</ele><time>2026-08-31T15:38:43Z</time></trkpt><trkpt lat="59.4811583776" lon="31.0207519960"><ele>57.34</ele><time>2026-08-31T15:38:53Z</time></trkpt><trkpt lat="59.4812161289" lon="31.0207022913"><ele>54.45</ele><time>2026-08-31T15:39:05Z</time></trkpt><trkpt lat="59.4813031331" lon="31.0206262674"><ele>52.53</ele><time>2026-08-31T15:39:20Z</time></trkpt><trkpt lat="59.4813777320" lon="31.0205237567"><ele>51.09</ele><time>2026-08-31T15:39:34Z</time></trkpt><trkpt lat="59.4814444520" lon="31.0203175619"><ele>52.53</ele><time>2026-08-31T15:39:49Z</time></trkpt><trkpt lat="59.4815682527" lon="31.0200963635"><ele>52.53</ele><time>2026-08-31T15:40:04Z</time></trkpt><trkpt lat="59.4816641416" lon="31.0199174099"><ele>53.49</ele><time>2026-08-31T15:40:19Z</time></trkpt><trkpt lat="59.4817179535" lon="31.0197210219"><ele>54.93</ele><time>2026-08-31T15:40:32Z</time></trkpt><trkpt lat="59.4817868527" lon="31.0196280666"><ele>55.89</ele><time>2026-08-31T15:40:46Z</time></trkpt><trkpt lat="59.4818125851" lon="31.0195764340"><ele>55.89</ele><time>2026-08-31T15:41:02Z</time></trkpt><trkpt lat="59.4819257408" lon="31.0193948820"><ele>56.86</ele><time>2026-08-31T15:41:17Z</time></trkpt><trkpt lat="59.4819905329" lon="31.0192396492"><ele>56.37</ele><time>2026-08-31T15:41:31Z</time></trkpt><trkpt lat="59.4820880145" lon="31.0190334544"><ele>56.37</ele><time>2026-08-31T15:41:47Z</time></trkpt><trkpt lat="59.4821627811" lon="31.0189271718"><ele>55.89</ele><time>2026-08-31T15:42:00Z</time></trkpt><trkpt lat="59.4822670519" lon="31.0187814943"><ele>53.49</ele><time>2026-08-31T15:42:12Z</time></trkpt><trkpt lat="59.4823455065" lon="31.0185672529"><ele>54.45</ele><time>2026-08-31T15:42:26Z</time></trkpt><trkpt lat="59.4823559001" lon="31.0185600445"><ele>54.45</ele><time>2026-08-31T15:42:28Z</time></trkpt><trkpt lat="59.4824366178" lon="31.0184010398"><ele>54.93</ele><time>2026-08-31T15:42:41Z</time></trkpt><trkpt lat="59.4824814610" lon="31.0182831064"><ele>55.41</ele><time>2026-08-31T15:42:52Z</time></trkpt><trkpt lat="59.4825377874" lon="31.0181862116"><ele>56.37</ele><time>2026-08-31T15:43:03Z</time></trkpt><trkpt lat="59.4825789426" lon="31.0181822721"><ele>56.37</ele><time>2026-08-31T15:43:16Z</time></trkpt><trkpt lat="59.4826092850" lon="31.0181256104"><ele>56.37</ele><time>2026-08-31T15:43:33Z</time></trkpt><trkpt lat="59.4826773461" lon="31.0180241894"><ele>57.82</ele><time>2026-08-31T15:43:52Z</time></trkpt><trkpt lat="59.4827653561" lon="31.0177982133"><ele>56.86</ele><time>2026-08-31T15:44:07Z</time></trkpt><trkpt lat="59.4828605745" lon="31.0176483449"><ele>56.37</ele><time>2026-08-31T15:44:22Z</time></trkpt><trkpt lat="59.4829126261" lon="31.0174664576"><ele>53.97</ele><time>2026-08-31T15:44:36Z</time></trkpt><trkpt lat="59.4829777535" lon="31.0173593368"><ele>52.53</ele><time>2026-08-31T15:44:51Z</time></trkpt><trkpt lat="59.4830676075" lon="31.0172258969"><ele>51.57</ele><time>2026-08-31T15:45:06Z</time></trkpt><trkpt lat="59.4831337407" lon="31.0170933791"><ele>49.65</ele><time>2026-08-31T15:45:18Z</time></trkpt><trkpt lat="59.4831565395" lon="31.0169477016"><ele>44.36</ele><time>2026-08-31T15:45:32Z</time></trkpt><trkpt lat="59.4832289591" lon="31.0168461129"><ele>43.88</ele><time>2026-08-31T15:45:47Z</time></trkpt><trkpt lat="59.4832587987" lon="31.0167799797"><ele>44.36</ele><time>2026-08-31T15:45:51Z</time></trkpt><trkpt lat="59.4833612256" lon="31.0166085698"><ele>44.84</ele><time>2026-08-31T15:46:04Z</time></trkpt><trkpt lat="59.4834367465" lon="31.0164552648"><ele>44.84</ele><time>2026-08-31T15:46:15Z</time></trkpt><trkpt lat="59.4835525006" lon="31.0162381735"><ele>41.47</ele><time>2026-08-31T15:46:31Z</time></trkpt><trkpt lat="59.4836315420" lon="31.0160239320"><ele>40.03</ele><time>2026-08-31T15:46:45Z</time></trkpt><trkpt lat="59.4836715236" lon="31.0158990417"><ele>40.03</ele><time>2026-08-31T15:46:53Z</time></trkpt><trkpt lat="59.4837840088" lon="31.0157627519"><ele>41.95</ele><time>2026-08-31T15:47:09Z</time></trkpt><trkpt lat="59.4838925544" lon="31.0155844688"><ele>41.95</ele><time>2026-08-31T15:47:23Z</time></trkpt><trkpt lat="59.4839854259" lon="31.0154418927"><ele>40.99</ele><time>2026-08-31T15:47:35Z</time></trkpt><trkpt lat="59.4840694964" lon="31.0152425710"><ele>40.99</ele><time>2026-08-31T15:47:48Z</time></trkpt><trkpt lat="59.4841500465" lon="31.0150503740"><ele>40.99</ele><time>2026-08-31T15:48:01Z</time></trkpt><trkpt lat="59.4842586759" lon="31.0148803890"><ele>39.07</ele><time>2026-08-31T15:48:18Z</time></trkpt><trkpt lat="59.4843605999" lon="31.0146888625"><ele>43.40</ele><time>2026-08-31T15:48:31Z</time></trkpt><trkpt lat="59.4844200276" lon="31.0145626310"><ele>43.88</ele><time>2026-08-31T15:48:38Z</time></trkpt><trkpt lat="59.4844616018" lon="31.0144708492"><ele>44.36</ele><time>2026-08-31T15:48:43Z</time></trkpt><trkpt lat="59.4845899288" lon="31.0143438634"><ele>45.80</ele><time>2026-08-31T15:48:59Z</time></trkpt><trkpt lat="59.4846557267" lon="31.0142433643"><ele>44.36</ele><time>2026-08-31T15:49:11Z</time></trkpt><trkpt lat="59.4847397134" lon="31.0141040571"><ele>43.40</ele><time>2026-08-31T15:49:22Z</time></trkpt><trkpt lat="59.4847437367" lon="31.0140816774"><ele>43.40</ele><time>2026-08-31T15:49:23Z</time></trkpt><trkpt lat="59.4848309085" lon="31.0138245206"><ele>42.44</ele><time>2026-08-31T15:49:35Z</time></trkpt><trkpt lat="59.4849164877" lon="31.0136654321"><ele>39.55</ele><time>2026-08-31T15:49:48Z</time></trkpt><trkpt lat="59.4849522784" lon="31.0135765839"><ele>34.74</ele><time>2026-08-31T15:50:03Z</time></trkpt><trkpt lat="59.4849889912" lon="31.0133931879"><ele>32.34</ele><time>2026-08-31T15:50:14Z</time></trkpt><trkpt lat="59.4851044100" lon="31.0133439023"><ele>36.67</ele><time>2026-08-31T15:50:25Z</time></trkpt><trkpt lat="59.4851809368" lon="31.0133780167"><ele>44.36</ele><time>2026-08-31T15:50:37Z</time></trkpt><trkpt lat="59.4851984549" lon="31.0134023242"><ele>44.84</ele><time>2026-08-31T15:50:39Z</time></trkpt><trkpt lat="59.4852889795" lon="31.0134822875"><ele>47.24</ele><time>2026-08-31T15:50:54Z</time></trkpt><trkpt lat="59.4853945915" lon="31.0135542043"><ele>47.24</ele><time>2026-08-31T15:51:09Z</time></trkpt><trkpt lat="59.4854200725" lon="31.0135766678"><ele>43.88</ele><time>2026-08-31T15:51:37Z</time></trkpt><trkpt lat="59.4854453858" lon="31.0137155559"><ele>48.20</ele><time>2026-08-31T15:52:04Z</time></trkpt><trkpt lat="59.4855578709" lon="31.0136841238"><ele>49.16</ele><time>2026-08-31T15:52:22Z</time></trkpt><trkpt lat="59.4856509939" lon="31.0137445573"><ele>50.61</ele><time>2026-08-31T15:52:39Z</time></trkpt><trkpt lat="59.4857820868" lon="31.0138375964"><ele>51.09</ele><time>2026-08-31T15:52:52Z</time></trkpt><trkpt lat="59.4859589450" lon="31.0140290391"><ele>51.57</ele><time>2026-08-31T15:53:08Z</time></trkpt><trkpt lat="59.4860578515" lon="31.0141706094"><ele>51.57</ele><time>2026-08-31T15:53:18Z</time></trkpt><trkpt lat="59.4861458614" lon="31.0142042208"><ele>52.05</ele><time>2026-08-31T15:53:25Z</time></trkpt><trkpt lat="59.4862885214" lon="31.0142641515"><ele>52.53</ele><time>2026-08-31T15:53:39Z</time></trkpt><trkpt lat="59.4863896072" lon="31.0142429452"><ele>52.53</ele><time>2026-08-31T15:53:51Z</time></trkpt><trkpt lat="59.4864900224" lon="31.0142238345"><ele>53.01</ele><time>2026-08-31T15:54:04Z</time></trkpt><trkpt lat="59.4865899347" lon="31.0142002814"><ele>50.13</ele><time>2026-08-31T15:54:18Z</time></trkpt><trkpt lat="59.4866634440" lon="31.0141723696"><ele>51.57</ele><time>2026-08-31T15:54:33Z</time></trkpt><trkpt lat="59.4867031742" lon="31.0141915642"><ele>51.57</ele><time>2026-08-31T15:54:38Z</time></trkpt><trkpt lat="59.4867405575" lon="31.0142100882"><ele>51.57</ele><time>2026-08-31T15:54:42Z</time></trkpt><trkpt lat="59.4869229477" lon="31.0142533388"><ele>52.05</ele><time>2026-08-31T15:54:59Z</time></trkpt><trkpt lat="59.4869564753" lon="31.0142298695"><ele>52.05</ele><time>2026-08-31T15:55:03Z</time></trkpt><trkpt lat="59.4869898353" lon="31.0142352339"><ele>52.05</ele><time>2026-08-31T15:55:06Z</time></trkpt><trkpt lat="59.4871008955" lon="31.0141180549"><ele>53.01</ele><time>2026-08-31T15:55:19Z</time></trkpt><trkpt lat="59.4871365186" lon="31.0140835214"><ele>53.49</ele><time>2026-08-31T15:55:22Z</time></trkpt><trkpt lat="59.4871549588" lon="31.0140363313"><ele>53.49</ele><time>2026-08-31T15:55:24Z</time></trkpt><trkpt lat="59.4872433040" lon="31.0138864629"><ele>54.45</ele><time>2026-08-31T15:55:37Z</time></trkpt><trkpt lat="59.4872886501" lon="31.0137932561"><ele>53.97</ele><time>2026-08-31T15:55:45Z</time></trkpt><trkpt lat="59.4873257820" lon="31.0138251074"><ele>53.49</ele><time>2026-08-31T15:55:49Z</time></trkpt><trkpt lat="59.4875117764" lon="31.0138198268"><ele>52.53</ele><time>2026-08-31T15:56:06Z</time></trkpt><trkpt lat="59.4876288716" lon="31.0137067549"><ele>52.53</ele><time>2026-08-31T15:56:20Z</time></trkpt><trkpt lat="59.4877365790" lon="31.0138889775"><ele>52.53</ele><time>2026-08-31T15:56:36Z</time></trkpt><trkpt lat="59.4878695160" lon="31.0139102675"><ele>50.61</ele><time>2026-08-31T15:56:50Z</time></trkpt><trkpt lat="59.4879467133" lon="31.0139986128"><ele>48.20</ele><time>2026-08-31T15:57:04Z</time></trkpt><trkpt lat="59.4881146867" lon="31.0140610579"><ele>49.16</ele><time>2026-08-31T15:57:21Z</time></trkpt><trkpt lat="59.4882736914" lon="31.0141427815"><ele>51.09</ele><time>2026-08-31T15:57:39Z</time></trkpt><trkpt lat="59.4883908704" lon="31.0143174604"><ele>53.97</ele><time>2026-08-31T15:57:52Z</time></trkpt><trkpt lat="59.4884900283" lon="31.0143421870"><ele>52.05</ele><time>2026-08-31T15:58:01Z</time></trkpt><trkpt lat="59.4885284174" lon="31.0143233277"><ele>52.05</ele><time>2026-08-31T15:58:04Z</time></trkpt><trkpt lat="59.4886043575" lon="31.0143940710"><ele>51.57</ele><time>2026-08-31T15:58:17Z</time></trkpt><trkpt lat="59.4886868354" lon="31.0144189652"><ele>52.05</ele><time>2026-08-31T15:58:32Z</time></trkpt><trkpt lat="59.4887626916" lon="31.0144772194"><ele>51.57</ele><time>2026-08-31T15:58:45Z</time></trkpt><trkpt lat="59.4888356980" lon="31.0145992599"><ele>50.61</ele><time>2026-08-31T15:58:59Z</time></trkpt><trkpt lat="59.4889624324" lon="31.0146353859"><ele>50.61</ele><time>2026-08-31T15:59:13Z</time></trkpt><trkpt lat="59.4890940282" lon="31.0149029363"><ele>55.41</ele><time>2026-08-31T15:59:27Z</time></trkpt><trkpt lat="59.4891854748" lon="31.0150195286"><ele>54.45</ele><time>2026-08-31T15:59:43Z</time></trkpt><trkpt lat="59.4892685395" lon="31.0150401480"><ele>53.49</ele><time>2026-08-31T15:59:57Z</time></trkpt><trkpt lat="59.4892909192" lon="31.0150934570"><ele>53.97</ele><time>2026-08-31T16:00:08Z</time></trkpt><trkpt lat="59.4893170707" lon="31.0151634458"><ele>53.97</ele><time>2026-08-31T16:00:27Z</time></trkpt><trkpt lat="59.4893816952" lon="31.0153003223"><ele>50.61</ele><time>2026-08-31T16:00:41Z</time></trkpt><trkpt lat="59.4894440565" lon="31.0154586565"><ele>51.09</ele><time>2026-08-31T16:00:53Z</time></trkpt><trkpt lat="59.4895178173" lon="31.0155703034"><ele>52.53</ele><time>2026-08-31T16:01:08Z</time></trkpt><trkpt lat="59.4895909075" lon="31.0156854708"><ele>52.05</ele><time>2026-08-31T16:01:22Z</time></trkpt><trkpt lat="59.4896391034" lon="31.0158382729"><ele>52.53</ele><time>2026-08-31T16:01:36Z</time></trkpt><trkpt lat="59.4896941725" lon="31.0160355829"><ele>49.65</ele><time>2026-08-31T16:01:53Z</time></trkpt><trkpt lat="59.4897768181" lon="31.0161149595"><ele>47.24</ele><time>2026-08-31T16:02:08Z</time></trkpt><trkpt lat="59.4898512494" lon="31.0161759797"><ele>45.80</ele><time>2026-08-31T16:02:22Z</time></trkpt><trkpt lat="59.4898792449" lon="31.0161779076"><ele>44.36</ele><time>2026-08-31T16:02:40Z</time></trkpt><trkpt lat="59.4899162091" lon="31.0162472259"><ele>45.80</ele><time>2026-08-31T16:03:09Z</time></trkpt><trkpt lat="59.4899792410" lon="31.0162836872"><ele>51.09</ele><time>2026-08-31T16:03:37Z</time></trkpt><trkpt lat="59.4900421053" lon="31.0162768140"><ele>52.53</ele><time>2026-08-31T16:04:03Z</time></trkpt><trkpt lat="59.4901192188" lon="31.0164151154"><ele>53.01</ele><time>2026-08-31T16:04:25Z</time></trkpt><trkpt lat="59.4901517406" lon="31.0164939892"><ele>55.41</ele><time>2026-08-31T16:04:55Z</time></trkpt><trkpt lat="59.4901227392" lon="31.0163659975"><ele>56.37</ele><time>2026-08-31T16:05:15Z</time></trkpt><trkpt lat="59.4900508225" lon="31.0163521674"><ele>52.53</ele><time>2026-08-31T16:05:43Z</time></trkpt><trkpt lat="59.4900311250" lon="31.0162088368"><ele>48.20</ele><time>2026-08-31T16:06:16Z</time></trkpt><trkpt lat="59.4901051372" lon="31.0160653386"><ele>46.76</ele><time>2026-08-31T16:06:47Z</time></trkpt><trkpt lat="59.4901735336" lon="31.0162354074"><ele>50.13</ele><time>2026-08-31T16:07:16Z</time></trkpt><trkpt lat="59.4902806543" lon="31.0163934901"><ele>57.34</ele><time>2026-08-31T16:07:34Z</time></trkpt><trkpt lat="59.4903850928" lon="31.0165395029"><ele>57.34</ele><time>2026-08-31T16:07:51Z</time></trkpt><trkpt lat="59.4904848374" lon="31.0167319514"><ele>55.89</ele><time>2026-08-31T16:08:06Z</time></trkpt><trkpt lat="59.4905924611" lon="31.0168735217"><ele>55.41</ele><time>2026-08-31T16:08:21Z</time></trkpt><trkpt lat="59.4906742685" lon="31.0169396549"><ele>52.53</ele><time>2026-08-31T16:08:35Z</time></trkpt><trkpt lat="59.4907408208" lon="31.0169329494"><ele>48.68</ele><time>2026-08-31T16:08:49Z</time></trkpt><trkpt lat="59.4908797089" lon="31.0169822350"><ele>44.84</ele><time>2026-08-31T16:09:10Z</time></trkpt><trkpt lat="59.4910058565" lon="31.0169953946"><ele>44.84</ele><time>2026-08-31T16:09:35Z</time></trkpt><trkpt lat="59.4910999015" lon="31.0172144976"><ele>42.92</ele><time>2026-08-31T16:09:58Z</time></trkpt><trkpt lat="59.4912876561" lon="31.0174595844"><ele>41.47</ele><time>2026-08-31T16:10:22Z</time></trkpt><trkpt lat="59.4914925937" lon="31.0175392963"><ele>47.72</ele><time>2026-08-31T16:10:49Z</time></trkpt><trkpt lat="59.4915745687" lon="31.0176770110"><ele>46.76</ele><time>2026-08-31T16:11:10Z</time></trkpt><trkpt lat="59.4917126186" lon="31.0178604908"><ele>43.40</ele><time>2026-08-31T16:11:33Z</time></trkpt><trkpt lat="59.4917374291" lon="31.0178708844"><ele>40.99</ele><time>2026-08-31T16:11:58Z</time></trkpt><trkpt lat="59.4918183144" lon="31.0179661866"><ele>42.92</ele><time>2026-08-31T16:12:22Z</time></trkpt><trkpt lat="59.4919368345" lon="31.0180384386"><ele>50.61</ele><time>2026-08-31T16:12:44Z</time></trkpt><trkpt lat="59.4921688456" lon="31.0181422904"><ele>49.16</ele><time>2026-08-31T16:13:08Z</time></trkpt><trkpt lat="59.4923810754" lon="31.0182918236"><ele>51.09</ele><time>2026-08-31T16:13:32Z</time></trkpt><trkpt lat="59.4925219752" lon="31.0183786601"><ele>53.49</ele><time>2026-08-31T16:13:54Z</time></trkpt><trkpt lat="59.4926552474" lon="31.0184405185"><ele>52.05</ele><time>2026-08-31T16:14:19Z</time></trkpt><trkpt lat="59.4928205386" lon="31.0184780695"><ele>48.20</ele><time>2026-08-31T16:14:39Z</time></trkpt><trkpt lat="59.4929894339" lon="31.0186063964"><ele>48.68</ele><time>2026-08-31T16:15:04Z</time></trkpt><trkpt lat="59.4931991491" lon="31.0187249165"><ele>51.09</ele><time>2026-08-31T16:15:29Z</time></trkpt><trkpt lat="59.4933756720" lon="31.0189476237"><ele>51.09</ele><time>2026-08-31T16:15:52Z</time></trkpt><trkpt lat="59.4933453295" lon="31.0192145035"><ele>47.72</ele><time>2026-08-31T16:16:14Z</time></trkpt><trkpt lat="59.4934065174" lon="31.0191140883"><ele>46.28</ele><time>2026-08-31T16:16:36Z</time></trkpt><trkpt lat="59.4935095310" lon="31.0191513039"><ele>43.40</ele><time>2026-08-31T16:17:00Z</time></trkpt><trkpt lat="59.4936615787" lon="31.0193049442"><ele>51.09</ele><time>2026-08-31T16:17:21Z</time></trkpt><trkpt lat="59.4937665202" lon="31.0192995798"><ele>51.09</ele><time>2026-08-31T16:17:37Z</time></trkpt><trkpt lat="59.4938489143" lon="31.0193655454"><ele>49.16</ele><time>2026-08-31T16:17:58Z</time></trkpt><trkpt lat="59.4938785862" lon="31.0193389747"><ele>48.20</ele><time>2026-08-31T16:18:15Z</time></trkpt><trkpt lat="59.4939943403" lon="31.0194424912"><ele>47.72</ele><time>2026-08-31T16:18:35Z</time></trkpt><trkpt lat="59.4941396825" lon="31.0196056869"><ele>46.76</ele><time>2026-08-31T16:18:55Z</time></trkpt><trkpt lat="59.4942110963" lon="31.0197731573"><ele>43.88</ele><time>2026-08-31T16:19:11Z</time></trkpt><trkpt lat="59.4943856914" lon="31.0198848881"><ele>41.95</ele><time>2026-08-31T16:19:37Z</time></trkpt><trkpt lat="59.4945726916" lon="31.0200129636"><ele>40.03</ele><time>2026-08-31T16:20:00Z</time></trkpt><trkpt lat="59.4947011024" lon="31.0201050807"><ele>39.55</ele><time>2026-08-31T16:20:20Z</time></trkpt><trkpt lat="59.4947535731" lon="31.0201379377"><ele>40.51</ele><time>2026-08-31T16:20:46Z</time></trkpt><trkpt lat="59.4948311895" lon="31.0202251095"><ele>50.13</ele><time>2026-08-31T16:21:08Z</time></trkpt><trkpt lat="59.4949142542" lon="31.0201707110"><ele>49.65</ele><time>2026-08-31T16:21:32Z</time></trkpt><trkpt lat="59.4950791262" lon="31.0202856269"><ele>47.72</ele><time>2026-08-31T16:21:53Z</time></trkpt><trkpt lat="59.4952393882" lon="31.0204391833"><ele>48.20</ele><time>2026-08-31T16:22:14Z</time></trkpt><trkpt lat="59.4953122269" lon="31.0204962641"><ele>51.09</ele><time>2026-08-31T16:22:34Z</time></trkpt><trkpt lat="59.4954234548" lon="31.0205906443"><ele>51.09</ele><time>2026-08-31T16:22:57Z</time></trkpt><trkpt lat="59.4955936912" lon="31.0207155347"><ele>51.09</ele><time>2026-08-31T16:23:16Z</time></trkpt><trkpt lat="59.4956864789" lon="31.0209432710"><ele>52.53</ele><time>2026-08-31T16:23:41Z</time></trkpt><trkpt lat="59.4957695436" lon="31.0210865177"><ele>54.93</ele><time>2026-08-31T16:24:08Z</time></trkpt><trkpt lat="59.4958530273" lon="31.0212134197"><ele>56.37</ele><time>2026-08-31T16:24:26Z</time></trkpt><trkpt lat="59.4959526043" lon="31.0214973986"><ele>53.01</ele><time>2026-08-31T16:24:49Z</time></trkpt><trkpt lat="59.4960457273" lon="31.0218359437"><ele>53.01</ele><time>2026-08-31T16:25:10Z</time></trkpt><trkpt lat="59.4961514231" lon="31.0220382828"><ele>49.16</ele><time>2026-08-31T16:25:33Z</time></trkpt><trkpt lat="59.4962482341" lon="31.0221324954"><ele>45.80</ele><time>2026-08-31T16:25:53Z</time></trkpt><trkpt lat="59.4963806681" lon="31.0222119559"><ele>42.44</ele><time>2026-08-31T16:26:11Z</time></trkpt><trkpt lat="59.4965245016" lon="31.0224402789"><ele>53.49</ele><time>2026-08-31T16:26:24Z</time></trkpt><trkpt lat="59.4966187980" lon="31.0225121118"><ele>51.57</ele><time>2026-08-31T16:26:39Z</time></trkpt><trkpt lat="59.4966914691" lon="31.0226105992"><ele>48.20</ele><time>2026-08-31T16:26:56Z</time></trkpt><trkpt lat="59.4967322052" lon="31.0226012114"><ele>46.28</ele><time>2026-08-31T16:27:18Z</time></trkpt><trkpt lat="59.4968068041" lon="31.0226032231"><ele>44.36</ele><time>2026-08-31T16:27:48Z</time></trkpt><trkpt lat="59.4968980830" lon="31.0226325598"><ele>42.92</ele><time>2026-08-31T16:28:07Z</time></trkpt><trkpt lat="59.4970215485" lon="31.0227369983"><ele>41.95</ele><time>2026-08-31T16:28:26Z</time></trkpt><trkpt lat="59.4972312637" lon="31.0228803288"><ele>48.20</ele><time>2026-08-31T16:28:44Z</time></trkpt><trkpt lat="59.4973196927" lon="31.0229452886"><ele>52.53</ele><time>2026-08-31T16:28:58Z</time></trkpt><trkpt lat="59.4974310882" lon="31.0230209772"><ele>54.93</ele><time>2026-08-31T16:29:14Z</time></trkpt><trkpt lat="59.4975829683" lon="31.0231356416"><ele>54.45</ele><time>2026-08-31T16:29:29Z</time></trkpt><trkpt lat="59.4977104571" lon="31.0232327040"><ele>54.45</ele><time>2026-08-31T16:29:43Z</time></trkpt><trkpt lat="59.4978222717" lon="31.0232985858"><ele>53.97</ele><time>2026-08-31T16:29:57Z</time></trkpt><trkpt lat="59.4979009777" lon="31.0233444348"><ele>52.53</ele><time>2026-08-31T16:30:09Z</time></trkpt><trkpt lat="59.4979832042" lon="31.0234362166"><ele>52.05</ele><time>2026-08-31T16:30:20Z</time></trkpt><trkpt lat="59.4981186558" lon="31.0235524736"><ele>51.09</ele><time>2026-08-31T16:30:34Z</time></trkpt><trkpt lat="59.4981392752" lon="31.0235746857"><ele>50.61</ele><time>2026-08-31T16:30:36Z</time></trkpt><trkpt lat="59.4981978647" lon="31.0236346163"><ele>49.16</ele><time>2026-08-31T16:30:46Z</time></trkpt><trkpt lat="59.4982334878" lon="31.0236599296"><ele>44.84</ele><time>2026-08-31T16:31:01Z</time></trkpt><trkpt lat="59.4982320629" lon="31.0237082932"><ele>43.88</ele><time>2026-08-31T16:31:21Z</time></trkpt><trkpt lat="59.4982474856" lon="31.0237379652"><ele>48.20</ele><time>2026-08-31T16:31:46Z</time></trkpt><trkpt lat="59.4982475694" lon="31.0237692297"><ele>53.97</ele><time>2026-08-31T16:32:12Z</time></trkpt><trkpt lat="59.4982800074" lon="31.0236796271"><ele>53.97</ele><time>2026-08-31T16:32:25Z</time></trkpt><trkpt lat="59.4982664287" lon="31.0236261506"><ele>55.89</ele><time>2026-08-31T16:32:51Z</time></trkpt><trkpt lat="59.4982764032" lon="31.0236968100"><ele>59.74</ele><time>2026-08-31T16:33:18Z</time></trkpt><trkpt lat="59.4982318114" lon="31.0236887634"><ele>62.62</ele><time>2026-08-31T16:33:50Z</time></trkpt><trkpt lat="59.4982241001" lon="31.0236958880"><ele>62.62</ele><time>2026-08-31T16:34:21Z</time></trkpt><trkpt lat="59.4982378464" lon="31.0237947945"><ele>66.47</ele><time>2026-08-31T16:34:49Z</time></trkpt><trkpt lat="59.4982380141" lon="31.0237963870"><ele>67.43</ele><time>2026-08-31T16:35:12Z</time></trkpt><trkpt lat="59.4982369244" lon="31.0237439163"><ele>66.47</ele><time>2026-08-31T16:35:39Z</time></trkpt><trkpt lat="59.4982191548" lon="31.0237045214"><ele>65.99</ele><time>2026-08-31T16:36:10Z</time></trkpt><trkpt lat="59.4982556999" lon="31.0237576626"><ele>64.07</ele><time>2026-08-31T16:36:45Z</time></trkpt><trkpt lat="59.4982437976" lon="31.0237617698"><ele>64.07</ele><time>2026-08-31T16:37:10Z</time></trkpt><trkpt lat="59.4982610643" lon="31.0236883443"><ele>66.95</ele><time>2026-08-31T16:37:36Z</time></trkpt><trkpt lat="59.4982360024" lon="31.0237414017"><ele>68.39</ele><time>2026-08-31T16:38:12Z</time></trkpt><trkpt lat="59.4983018003" lon="31.0238789488"><ele>62.14</ele><time>2026-08-31T16:38:33Z</time></trkpt><trkpt lat="59.4983341545" lon="31.0238766018"><ele>60.70</ele><time>2026-08-31T16:38:49Z</time></trkpt><trkpt lat="59.4983635750" lon="31.0238844808"><ele>60.70</ele><time>2026-08-31T16:39:08Z</time></trkpt><trkpt lat="59.4983495772" lon="31.0239025019"><ele>59.74</ele><time>2026-08-31T16:39:19Z</time></trkpt><trkpt lat="59.4983693585" lon="31.0240091197"><ele>58.78</ele><time>2026-08-31T16:39:33Z</time></trkpt><trkpt lat="59.4983756449" lon="31.0241521150"><ele>58.78</ele><time>2026-08-31T16:39:48Z</time></trkpt><trkpt lat="59.4983582105" lon="31.0242847167"><ele>59.26</ele><time>2026-08-31T16:40:07Z</time></trkpt><trkpt lat="59.4983809255" lon="31.0244084336"><ele>58.78</ele><time>2026-08-31T16:40:13Z</time></trkpt><trkpt lat="59.4983902294" lon="31.0245706234"><ele>59.26</ele><time>2026-08-31T16:40:27Z</time></trkpt><trkpt lat="59.4984338991" lon="31.0246943403"><ele>58.78</ele><time>2026-08-31T16:40:38Z</time></trkpt><trkpt lat="59.4984858669" lon="31.0249273572"><ele>59.74</ele><time>2026-08-31T16:40:55Z</time></trkpt><trkpt lat="59.4984757248" lon="31.0251056403"><ele>59.26</ele><time>2026-08-31T16:41:08Z</time></trkpt><trkpt lat="59.4984955899" lon="31.0253741127"><ele>59.26</ele><time>2026-08-31T16:41:22Z</time></trkpt><trkpt lat="59.4984846096" lon="31.0254702531"><ele>59.26</ele><time>2026-08-31T16:41:27Z</time></trkpt><trkpt lat="59.4984457176" lon="31.0257248953"><ele>59.74</ele><time>2026-08-31T16:41:41Z</time></trkpt><trkpt lat="59.4984245114" lon="31.0257481970"><ele>61.18</ele><time>2026-08-31T16:41:52Z</time></trkpt><trkpt lat="59.4984193146" lon="31.0260045994"><ele>59.26</ele><time>2026-08-31T16:42:06Z</time></trkpt><trkpt lat="59.4983978570" lon="31.0263146460"><ele>59.26</ele><time>2026-08-31T16:42:23Z</time></trkpt><trkpt lat="59.4983536005" lon="31.0265469085"><ele>59.74</ele><time>2026-08-31T16:42:38Z</time></trkpt><trkpt lat="59.4983251020" lon="31.0267010517"><ele>59.74</ele><time>2026-08-31T16:42:49Z</time></trkpt><trkpt lat="59.4982704520" lon="31.0268546920"><ele>59.26</ele><time>2026-08-31T16:43:00Z</time></trkpt><trkpt lat="59.4982575439" lon="31.0270652454"><ele>58.78</ele><time>2026-08-31T16:43:14Z</time></trkpt><trkpt lat="59.4982047379" lon="31.0271992721"><ele>58.78</ele><time>2026-08-31T16:43:26Z</time></trkpt><trkpt lat="59.4981793407" lon="31.0272608791"><ele>58.30</ele><time>2026-08-31T16:43:38Z</time></trkpt><trkpt lat="59.4981504232" lon="31.0271967575"><ele>59.26</ele><time>2026-08-31T16:43:56Z</time></trkpt><trkpt lat="59.4980980363" lon="31.0271866154"><ele>60.22</ele><time>2026-08-31T16:44:10Z</time></trkpt><trkpt lat="59.4981550332" lon="31.0272079892"><ele>59.74</ele><time>2026-08-31T16:44:28Z</time></trkpt><trkpt lat="59.4981282949" lon="31.0272759665"><ele>58.78</ele><time>2026-08-31T16:44:44Z</time></trkpt><trkpt lat="59.4981061667" lon="31.0274399165"><ele>60.22</ele><time>2026-08-31T16:44:58Z</time></trkpt><trkpt lat="59.4980938453" lon="31.0276644677"><ele>61.18</ele><time>2026-08-31T16:45:13Z</time></trkpt><trkpt lat="59.4979899935" lon="31.0277503822"><ele>62.14</ele><time>2026-08-31T16:45:28Z</time></trkpt><trkpt lat="59.4979454856" lon="31.0280156694"><ele>62.14</ele><time>2026-08-31T16:45:44Z</time></trkpt><trkpt lat="59.4979231060" lon="31.0282630194"><ele>61.66</ele><time>2026-08-31T16:46:01Z</time></trkpt><trkpt lat="59.4978800230" lon="31.0284003150"><ele>61.18</ele><time>2026-08-31T16:46:14Z</time></trkpt><trkpt lat="59.4978322461" lon="31.0286103655"><ele>60.70</ele><time>2026-08-31T16:46:28Z</time></trkpt><trkpt lat="59.4977901690" lon="31.0288309772"><ele>60.22</ele><time>2026-08-31T16:46:42Z</time></trkpt><trkpt lat="59.4977184199" lon="31.0290528461"><ele>59.26</ele><time>2026-08-31T16:46:56Z</time></trkpt><trkpt lat="59.4976983033" lon="31.0292680096"><ele>59.74</ele><time>2026-08-31T16:47:10Z</time></trkpt><trkpt lat="59.4976552203" lon="31.0293738730"><ele>58.30</ele><time>2026-08-31T16:47:24Z</time></trkpt><trkpt lat="59.4976458326" lon="31.0294328816"><ele>55.89</ele><time>2026-08-31T16:47:43Z</time></trkpt><trkpt lat="59.4976538792" lon="31.0293127690"><ele>56.86</ele><time>2026-08-31T16:48:16Z</time></trkpt><trkpt lat="59.4976477604" lon="31.0292918980"><ele>64.55</ele><time>2026-08-31T16:48:44Z</time></trkpt><trkpt lat="59.4976768456" lon="31.0292823426"><ele>65.51</ele><time>2026-08-31T16:49:13Z</time></trkpt><trkpt lat="59.4977760036" lon="31.0292307101"><ele>64.07</ele><time>2026-08-31T16:49:25Z</time></trkpt><trkpt lat="59.4978714734" lon="31.0290417820"><ele>61.18</ele><time>2026-08-31T16:49:41Z</time></trkpt><trkpt lat="59.4979295600" lon="31.0288339108"><ele>60.70</ele><time>2026-08-31T16:49:56Z</time></trkpt><trkpt lat="59.4979684521" lon="31.0285852198"><ele>61.18</ele><time>2026-08-31T16:50:11Z</time></trkpt><trkpt lat="59.4980426319" lon="31.0284126364"><ele>61.66</ele><time>2026-08-31T16:50:25Z</time></trkpt><trkpt lat="59.4981230143" lon="31.0281277355"><ele>60.22</ele><time>2026-08-31T16:50:42Z</time></trkpt><trkpt lat="59.4982150476" lon="31.0279420763"><ele>58.78</ele><time>2026-08-31T16:50:58Z</time></trkpt><trkpt lat="59.4982588012" lon="31.0277083889"><ele>57.34</ele><time>2026-08-31T16:51:14Z</time></trkpt><trkpt lat="59.4982716255" lon="31.0276593547"><ele>53.97</ele><time>2026-08-31T16:51:38Z</time></trkpt><trkpt lat="59.4982909039" lon="31.0276100691"><ele>56.37</ele><time>2026-08-31T16:52:08Z</time></trkpt><trkpt lat="59.4983151276" lon="31.0275068879"><ele>59.26</ele><time>2026-08-31T16:52:38Z</time></trkpt><trkpt lat="59.4983021356" lon="31.0274919681"><ele>63.10</ele><time>2026-08-31T16:53:01Z</time></trkpt><trkpt lat="59.4982894789" lon="31.0275566764"><ele>65.99</ele><time>2026-08-31T16:53:24Z</time></trkpt><trkpt lat="59.4983251020" lon="31.0274531599"><ele>64.07</ele><time>2026-08-31T16:53:42Z</time></trkpt><trkpt lat="59.4983517565" lon="31.0274280980"><ele>61.66</ele><time>2026-08-31T16:53:56Z</time></trkpt><trkpt lat="59.4983367529" lon="31.0274325404"><ele>59.74</ele><time>2026-08-31T16:54:20Z</time></trkpt><trkpt lat="59.4983411953" lon="31.0273432732"><ele>62.14</ele><time>2026-08-31T16:54:45Z</time></trkpt><trkpt lat="59.4984141178" lon="31.0272252560"><ele>59.74</ele><time>2026-08-31T16:54:58Z</time></trkpt><trkpt lat="59.4984789938" lon="31.0270722024"><ele>58.30</ele><time>2026-08-31T16:55:10Z</time></trkpt><trkpt lat="59.4985546824" lon="31.0268308874"><ele>58.78</ele><time>2026-08-31T16:55:26Z</time></trkpt><trkpt lat="59.4985690154" lon="31.0266137123"><ele>60.22</ele><time>2026-08-31T16:55:41Z</time></trkpt><trkpt lat="59.4985960890" lon="31.0264619160"><ele>60.22</ele><time>2026-08-31T16:55:54Z</time></trkpt><trkpt lat="59.4986423571" lon="31.0263337567"><ele>60.22</ele><time>2026-08-31T16:56:07Z</time></trkpt><trkpt lat="59.4986893795" lon="31.0262998939"><ele>59.74</ele><time>2026-08-31T16:56:23Z</time></trkpt><trkpt lat="59.4986695983" lon="31.0262901708"><ele>60.70</ele><time>2026-08-31T16:56:44Z</time></trkpt><trkpt lat="59.4987132680" lon="31.0261832178"><ele>60.70</ele><time>2026-08-31T16:57:08Z</time></trkpt><trkpt lat="59.4987431075" lon="31.0261096247"><ele>60.70</ele><time>2026-08-31T16:57:13Z</time></trkpt><trkpt lat="59.4987835921" lon="31.0258611850"><ele>59.74</ele><time>2026-08-31T16:57:27Z</time></trkpt><trkpt lat="59.4988152757" lon="31.0256896075"><ele>57.34</ele><time>2026-08-31T16:57:39Z</time></trkpt><trkpt lat="59.4988658186" lon="31.0255099833"><ele>56.37</ele><time>2026-08-31T16:57:51Z</time></trkpt><trkpt lat="59.4989669044" lon="31.0253518168"><ele>56.37</ele><time>2026-08-31T16:58:06Z</time></trkpt><trkpt lat="59.4989955705" lon="31.0251543391"><ele>55.41</ele><time>2026-08-31T16:58:18Z</time></trkpt><trkpt lat="59.4990055449" lon="31.0249207355"><ele>56.86</ele><time>2026-08-31T16:58:32Z</time></trkpt><trkpt lat="59.4990577642" lon="31.0246821865"><ele>57.82</ele><time>2026-08-31T16:58:47Z</time></trkpt><trkpt lat="59.4990981650" lon="31.0245423764"><ele>57.82</ele><time>2026-08-31T16:58:59Z</time></trkpt><trkpt lat="59.4991102349" lon="31.0245116986"><ele>59.74</ele><time>2026-08-31T16:59:21Z</time></trkpt><trkpt lat="59.4991359673" lon="31.0245370120"><ele>64.07</ele><time>2026-08-31T16:59:53Z</time></trkpt><trkpt lat="59.4991438463" lon="31.0245131236"><ele>65.03</ele><time>2026-08-31T17:00:18Z</time></trkpt><trkpt lat="59.4990881067" lon="31.0245055798"><ele>61.18</ele><time>2026-08-31T17:00:33Z</time></trkpt><trkpt lat="59.4990734383" lon="31.0245008022"><ele>61.66</ele><time>2026-08-31T17:00:58Z</time></trkpt><trkpt lat="59.4991390686" lon="31.0244632512"><ele>60.70</ele><time>2026-08-31T17:01:13Z</time></trkpt><trkpt lat="59.4991458580" lon="31.0243774205"><ele>60.22</ele><time>2026-08-31T17:01:24Z</time></trkpt><trkpt lat="59.4991461933" lon="31.0243159812"><ele>60.22</ele><time>2026-08-31T17:01:37Z</time></trkpt><trkpt lat="59.4992294256" lon="31.0242568888"><ele>60.22</ele><time>2026-08-31T17:01:47Z</time></trkpt><trkpt lat="59.4992788788" lon="31.0242077708"><ele>60.22</ele><time>2026-08-31T17:01:53Z</time></trkpt><trkpt lat="59.4993080478" lon="31.0239622649"><ele>58.78</ele><time>2026-08-31T17:02:07Z</time></trkpt><trkpt lat="59.4993615244" lon="31.0237357859"><ele>57.82</ele><time>2026-08-31T17:02:22Z</time></trkpt><trkpt lat="59.4994400628" lon="31.0236058664"><ele>57.82</ele><time>2026-08-31T17:02:34Z</time></trkpt><trkpt lat="59.4995357003" lon="31.0234564170"><ele>58.78</ele><time>2026-08-31T17:02:48Z</time></trkpt><trkpt lat="59.4995529670" lon="31.0232378170"><ele>59.26</ele><time>2026-08-31T17:03:02Z</time></trkpt><trkpt lat="59.4995357841" lon="31.0230255034"><ele>57.82</ele><time>2026-08-31T17:03:16Z</time></trkpt><trkpt lat="59.4995471835" lon="31.0230446141"><ele>56.86</ele><time>2026-08-31T17:03:42Z</time></trkpt><trkpt lat="59.4995039329" lon="31.0230144393"><ele>57.34</ele><time>2026-08-31T17:04:04Z</time></trkpt><trkpt lat="59.4995491952" lon="31.0228513274"><ele>61.18</ele><time>2026-08-31T17:04:25Z</time></trkpt><trkpt lat="59.4995793700" lon="31.0226241779"><ele>60.70</ele><time>2026-08-31T17:04:39Z</time></trkpt><trkpt lat="59.4996446650" lon="31.0224156361"><ele>59.26</ele><time>2026-08-31T17:04:55Z</time></trkpt><trkpt lat="59.4997108821" lon="31.0222412087"><ele>58.30</ele><time>2026-08-31T17:05:08Z</time></trkpt><trkpt lat="59.4997408893" lon="31.0221852176"><ele>58.30</ele><time>2026-08-31T17:05:13Z</time></trkpt><trkpt lat="59.4998162426" lon="31.0220120475"><ele>57.34</ele><time>2026-08-31T17:05:28Z</time></trkpt><trkpt lat="59.4998798613" lon="31.0218428168"><ele>57.82</ele><time>2026-08-31T17:05:41Z</time></trkpt><trkpt lat="59.4999791868" lon="31.0216767713"><ele>56.37</ele><time>2026-08-31T17:05:56Z</time></trkpt><trkpt lat="59.5000451524" lon="31.0215956345"><ele>57.34</ele><time>2026-08-31T17:06:10Z</time></trkpt><trkpt lat="59.5000185817" lon="31.0216046870"><ele>55.41</ele><time>2026-08-31T17:06:44Z</time></trkpt><trkpt lat="59.5000043325" lon="31.0214652959"><ele>57.82</ele><time>2026-08-31T17:07:18Z</time></trkpt><trkpt lat="59.5000582282" lon="31.0214657150"><ele>56.86</ele><time>2026-08-31T17:07:45Z</time></trkpt><trkpt lat="59.5000854693" lon="31.0214713309"><ele>57.34</ele><time>2026-08-31T17:08:08Z</time></trkpt><trkpt lat="59.5001167338" lon="31.0212083068"><ele>59.74</ele><time>2026-08-31T17:08:23Z</time></trkpt><trkpt lat="59.5001008082" lon="31.0209161136"><ele>59.74</ele><time>2026-08-31T17:08:39Z</time></trkpt><trkpt lat="59.5001545362" lon="31.0206750501"><ele>57.82</ele><time>2026-08-31T17:08:54Z</time></trkpt><trkpt lat="59.5002048276" lon="31.0203825217"><ele>56.86</ele><time>2026-08-31T17:09:11Z</time></trkpt><trkpt lat="59.5002471562" lon="31.0201720521"><ele>55.41</ele><time>2026-08-31T17:09:26Z</time></trkpt><trkpt lat="59.5003089309" lon="31.0200489219"><ele>57.34</ele><time>2026-08-31T17:09:38Z</time></trkpt><trkpt lat="59.5003683586" lon="31.0199163202"><ele>58.78</ele><time>2026-08-31T17:09:52Z</time></trkpt><trkpt lat="59.5004005451" lon="31.0197967943"><ele>60.22</ele><time>2026-08-31T17:10:06Z</time></trkpt><trkpt lat="59.5004306361" lon="31.0198630113"><ele>62.14</ele><time>2026-08-31T17:10:36Z</time></trkpt><trkpt lat="59.5003992878" lon="31.0197399650"><ele>63.58</ele><time>2026-08-31T17:11:03Z</time></trkpt><trkpt lat="59.5004828554" lon="31.0196446627"><ele>59.26</ele><time>2026-08-31T17:11:15Z</time></trkpt><trkpt lat="59.5005166344" lon="31.0194714088"><ele>57.82</ele><time>2026-08-31T17:11:28Z</time></trkpt><trkpt lat="59.5005327277" lon="31.0193493683"><ele>57.82</ele><time>2026-08-31T17:11:40Z</time></trkpt><trkpt lat="59.5005202387" lon="31.0192869231"><ele>58.78</ele><time>2026-08-31T17:11:55Z</time></trkpt><trkpt lat="59.5005181432" lon="31.0192128271"><ele>60.22</ele><time>2026-08-31T17:12:08Z</time></trkpt><trkpt lat="59.5005994476" lon="31.0190464463"><ele>59.26</ele><time>2026-08-31T17:12:21Z</time></trkpt><trkpt lat="59.5006828476" lon="31.0189011041"><ele>59.74</ele><time>2026-08-31T17:12:34Z</time></trkpt><trkpt lat="59.5007513277" lon="31.0187823325"><ele>59.26</ele><time>2026-08-31T17:12:49Z</time></trkpt><trkpt lat="59.5007619727" lon="31.0187016148"><ele>59.74</ele><time>2026-08-31T17:13:02Z</time></trkpt><trkpt lat="59.5007986855" lon="31.0186598729"><ele>60.22</ele><time>2026-08-31T17:13:16Z</time></trkpt><trkpt lat="59.5007521659" lon="31.0184546001"><ele>59.26</ele><time>2026-08-31T17:13:28Z</time></trkpt><trkpt lat="59.5007827599" lon="31.0181955993"><ele>60.70</ele><time>2026-08-31T17:13:45Z</time></trkpt><trkpt lat="59.5007988531" lon="31.0181497503"><ele>59.26</ele><time>2026-08-31T17:14:03Z</time></trkpt><trkpt lat="59.5008182153" lon="31.0182320606"><ele>60.22</ele><time>2026-08-31T17:14:34Z</time></trkpt><trkpt lat="59.5008594543" lon="31.0182627384"><ele>65.99</ele><time>2026-08-31T17:14:59Z</time></trkpt><trkpt lat="59.5008431096" lon="31.0182706174"><ele>65.99</ele><time>2026-08-31T17:15:25Z</time></trkpt><trkpt lat="59.5008687582" lon="31.0182768200"><ele>66.95</ele><time>2026-08-31T17:15:53Z</time></trkpt><trkpt lat="59.5008347277" lon="31.0182330664"><ele>71.27</ele><time>2026-08-31T17:16:17Z</time></trkpt><trkpt lat="59.5008190535" lon="31.0181656759"><ele>70.79</ele><time>2026-08-31T17:16:46Z</time></trkpt><trkpt lat="59.5008233283" lon="31.0181503370"><ele>68.39</ele><time>2026-08-31T17:17:06Z</time></trkpt><trkpt lat="59.5008529164" lon="31.0181425419"><ele>67.91</ele><time>2026-08-31T17:17:35Z</time></trkpt><trkpt lat="59.5008638967" lon="31.0181741416"><ele>68.39</ele><time>2026-08-31T17:18:02Z</time></trkpt><trkpt lat="59.5008191373" lon="31.0178963654"><ele>63.58</ele><time>2026-08-31T17:18:15Z</time></trkpt><trkpt lat="59.5008407626" lon="31.0175937787"><ele>60.70</ele><time>2026-08-31T17:18:32Z</time></trkpt><trkpt lat="59.5008911379" lon="31.0174119752"><ele>60.22</ele><time>2026-08-31T17:18:46Z</time></trkpt><trkpt lat="59.5009317901" lon="31.0171423294"><ele>60.22</ele><time>2026-08-31T17:19:03Z</time></trkpt><trkpt lat="59.5009718556" lon="31.0169145931"><ele>60.22</ele><time>2026-08-31T17:19:17Z</time></trkpt><trkpt lat="59.5010070596" lon="31.0166963283"><ele>61.66</ele><time>2026-08-31T17:19:31Z</time></trkpt><trkpt lat="59.5010142680" lon="31.0165507346"><ele>60.70</ele><time>2026-08-31T17:19:45Z</time></trkpt><trkpt lat="59.5010425150" lon="31.0166535806"><ele>60.22</ele><time>2026-08-31T17:20:14Z</time></trkpt><trkpt lat="59.5010065567" lon="31.0164100863"><ele>63.10</ele><time>2026-08-31T17:20:44Z</time></trkpt><trkpt lat="59.5009970013" lon="31.0162167996"><ele>61.66</ele><time>2026-08-31T17:20:59Z</time></trkpt><trkpt lat="59.5010404196" lon="31.0160202440"><ele>61.66</ele><time>2026-08-31T17:21:14Z</time></trkpt><trkpt lat="59.5010778867" lon="31.0158314835"><ele>61.18</ele><time>2026-08-31T17:21:27Z</time></trkpt><trkpt lat="59.5011109952" lon="31.0155817028"><ele>62.14</ele><time>2026-08-31T17:21:43Z</time></trkpt><trkpt lat="59.5011351351" lon="31.0154574830"><ele>62.14</ele><time>2026-08-31T17:21:55Z</time></trkpt><trkpt lat="59.5012229774" lon="31.0152878333"><ele>62.14</ele><time>2026-08-31T17:22:09Z</time></trkpt><trkpt lat="59.5012309402" lon="31.0150954686"><ele>60.70</ele><time>2026-08-31T17:22:24Z</time></trkpt><trkpt lat="59.5012756996" lon="31.0148410778"><ele>60.22</ele><time>2026-08-31T17:22:40Z</time></trkpt><trkpt lat="59.5012992527" lon="31.0148161836"><ele>58.78</ele><time>2026-08-31T17:22:56Z</time></trkpt><trkpt lat="59.5013119932" lon="31.0147928819"><ele>57.82</ele><time>2026-08-31T17:23:26Z</time></trkpt><trkpt lat="59.5013145916" lon="31.0146320332"><ele>61.18</ele><time>2026-08-31T17:23:54Z</time></trkpt><trkpt lat="59.5013550762" lon="31.0144614615"><ele>60.22</ele><time>2026-08-31T17:24:08Z</time></trkpt><trkpt lat="59.5014015120" lon="31.0142611340"><ele>60.22</ele><time>2026-08-31T17:24:22Z</time></trkpt><trkpt lat="59.5014348719" lon="31.0140825994"><ele>58.78</ele><time>2026-08-31T17:24:35Z</time></trkpt><trkpt lat="59.5014566649" lon="31.0139732156"><ele>56.37</ele><time>2026-08-31T17:24:49Z</time></trkpt><trkpt lat="59.5014823135" lon="31.0137837846"><ele>58.30</ele><time>2026-08-31T17:25:01Z</time></trkpt><trkpt lat="59.5015311800" lon="31.0135588143"><ele>59.74</ele><time>2026-08-31T17:25:17Z</time></trkpt><trkpt lat="59.5015782025" lon="31.0133880749"><ele>58.78</ele><time>2026-08-31T17:25:31Z</time></trkpt><trkpt lat="59.5016091317" lon="31.0131579079"><ele>57.82</ele><time>2026-08-31T17:25:45Z</time></trkpt><trkpt lat="59.5016467664" lon="31.0130907688"><ele>56.37</ele><time>2026-08-31T17:26:00Z</time></trkpt><trkpt lat="59.5016367920" lon="31.0131443292"><ele>54.93</ele><time>2026-08-31T17:26:24Z</time></trkpt><trkpt lat="59.5016412344" lon="31.0130393039"><ele>60.70</ele><time>2026-08-31T17:26:54Z</time></trkpt><trkpt lat="59.5016534720" lon="31.0129021760"><ele>59.74</ele><time>2026-08-31T17:27:09Z</time></trkpt><trkpt lat="59.5016989019" lon="31.0127223004"><ele>60.70</ele><time>2026-08-31T17:27:21Z</time></trkpt><trkpt lat="59.5017387997" lon="31.0126004275"><ele>60.70</ele><time>2026-08-31T17:27:32Z</time></trkpt><trkpt lat="59.5017623529" lon="31.0123981722"><ele>60.22</ele><time>2026-08-31T17:27:45Z</time></trkpt><trkpt lat="59.5017935336" lon="31.0122993495"><ele>60.70</ele><time>2026-08-31T17:27:52Z</time></trkpt><trkpt lat="59.5018213615" lon="31.0120924842"><ele>59.74</ele><time>2026-08-31T17:28:05Z</time></trkpt><trkpt lat="59.5018838067" lon="31.0118480679"><ele>60.22</ele><time>2026-08-31T17:28:22Z</time></trkpt><trkpt lat="59.5019463357" lon="31.0116699524"><ele>59.74</ele><time>2026-08-31T17:28:36Z</time></trkpt><trkpt lat="59.5019652788" lon="31.0114931781"><ele>60.70</ele><time>2026-08-31T17:28:54Z</time></trkpt><trkpt lat="59.5019931067" lon="31.0113100335"><ele>60.70</ele><time>2026-08-31T17:29:09Z</time></trkpt><trkpt lat="59.5019787736" lon="31.0112622567"><ele>62.62</ele><time>2026-08-31T17:29:29Z</time></trkpt><trkpt lat="59.5019595791" lon="31.0112361051"><ele>65.03</ele><time>2026-08-31T17:30:03Z</time></trkpt><trkpt lat="59.5019527059" lon="31.0112779308"><ele>66.95</ele><time>2026-08-31T17:30:26Z</time></trkpt><trkpt lat="59.5019615069" lon="31.0112699680"><ele>65.51</ele><time>2026-08-31T17:30:49Z</time></trkpt><trkpt lat="59.5019812882" lon="31.0112706386"><ele>64.07</ele><time>2026-08-31T17:31:10Z</time></trkpt><trkpt lat="59.5019971300" lon="31.0113588162"><ele>62.62</ele><time>2026-08-31T17:31:36Z</time></trkpt><trkpt lat="59.5019850601" lon="31.0112957843"><ele>61.66</ele><time>2026-08-31T17:32:07Z</time></trkpt><trkpt lat="59.5019748341" lon="31.0112622567"><ele>60.70</ele><time>2026-08-31T17:32:40Z</time></trkpt><trkpt lat="59.5020064339" lon="31.0113261268"><ele>60.70</ele><time>2026-08-31T17:33:11Z</time></trkpt><trkpt lat="59.5020515285" lon="31.0112951137"><ele>65.03</ele><time>2026-08-31T17:33:38Z</time></trkpt><trkpt lat="59.5020512771" lon="31.0112742428"><ele>65.51</ele><time>2026-08-31T17:34:07Z</time></trkpt><trkpt lat="59.5019541308" lon="31.0113094468"><ele>59.74</ele><time>2026-08-31T17:34:33Z</time></trkpt><trkpt lat="59.5019770972" lon="31.0113298986"><ele>57.82</ele><time>2026-08-31T17:35:02Z</time></trkpt><trkpt lat="59.5019600820" lon="31.0113143921"><ele>59.74</ele><time>2026-08-31T17:35:31Z</time></trkpt><trkpt lat="59.5019841380" lon="31.0113445669"><ele>58.78</ele><time>2026-08-31T17:35:52Z</time></trkpt><trkpt lat="59.5019747503" lon="31.0113680363"><ele>59.26</ele><time>2026-08-31T17:36:19Z</time></trkpt><trkpt lat="59.5019636024" lon="31.0113477521"><ele>63.10</ele><time>2026-08-31T17:36:45Z</time></trkpt><trkpt lat="59.5019384567" lon="31.0112823732"><ele>65.03</ele><time>2026-08-31T17:37:16Z</time></trkpt><trkpt lat="59.5019343495" lon="31.0113036633"><ele>66.47</ele><time>2026-08-31T17:37:42Z</time></trkpt><trkpt lat="59.5019410551" lon="31.0112283099"><ele>67.43</ele><time>2026-08-31T17:38:07Z</time></trkpt><trkpt lat="59.5019417256" lon="31.0112537071"><ele>69.83</ele><time>2026-08-31T17:38:37Z</time></trkpt><trkpt lat="59.5019374508" lon="31.0111577343"><ele>65.03</ele><time>2026-08-31T17:38:57Z</time></trkpt><trkpt lat="59.5019527059" lon="31.0109446663"><ele>61.66</ele><time>2026-08-31T17:39:10Z</time></trkpt><trkpt lat="59.5019248780" lon="31.0106985737"><ele>60.70</ele><time>2026-08-31T17:39:25Z</time></trkpt><trkpt lat="59.5018539671" lon="31.0105038621"><ele>59.74</ele><time>2026-08-31T17:39:39Z</time></trkpt><trkpt lat="59.5018279832" lon="31.0104290955"><ele>60.22</ele><time>2026-08-31T17:39:44Z</time></trkpt><trkpt lat="59.5017561503" lon="31.0102612060"><ele>60.22</ele><time>2026-08-31T17:39:58Z</time></trkpt><trkpt lat="59.5016709063" lon="31.0101266764"><ele>60.22</ele><time>2026-08-31T17:40:11Z</time></trkpt><trkpt lat="59.5016104728" lon="31.0099696834"><ele>60.22</ele><time>2026-08-31T17:40:23Z</time></trkpt><trkpt lat="59.5015382208" lon="31.0099128541"><ele>59.74</ele><time>2026-08-31T17:40:35Z</time></trkpt><trkpt lat="59.5014582574" lon="31.0098073259"><ele>59.74</ele><time>2026-08-31T17:40:48Z</time></trkpt><trkpt lat="59.5014734287" lon="31.0098180547"><ele>57.82</ele><time>2026-08-31T17:41:05Z</time></trkpt><trkpt lat="59.5014450978" lon="31.0098437034"><ele>56.37</ele><time>2026-08-31T17:41:35Z</time></trkpt><trkpt lat="59.5014208741" lon="31.0097698588"><ele>59.26</ele><time>2026-08-31T17:41:58Z</time></trkpt><trkpt lat="59.5013672300" lon="31.0095955990"><ele>59.26</ele><time>2026-08-31T17:42:11Z</time></trkpt><trkpt lat="59.5013079699" lon="31.0094448924"><ele>59.74</ele><time>2026-08-31T17:42:24Z</time></trkpt><trkpt lat="59.5012435969" lon="31.0093049984"><ele>59.74</ele><time>2026-08-31T17:42:37Z</time></trkpt><trkpt lat="59.5011841692" lon="31.0091719776"><ele>59.74</ele><time>2026-08-31T17:42:50Z</time></trkpt><trkpt lat="59.5011180360" lon="31.0091692116"><ele>60.22</ele><time>2026-08-31T17:43:01Z</time></trkpt><trkpt lat="59.5010669902" lon="31.0091045871"><ele>59.74</ele><time>2026-08-31T17:43:13Z</time></trkpt><trkpt lat="59.5010626316" lon="31.0090871528"><ele>60.22</ele><time>2026-08-31T17:43:24Z</time></trkpt><trkpt lat="59.5010539982" lon="31.0091022402"><ele>60.22</ele><time>2026-08-31T17:43:46Z</time></trkpt><trkpt lat="59.5010509808" lon="31.0091133881"><ele>60.70</ele><time>2026-08-31T17:44:11Z</time></trkpt><trkpt lat="59.5010451134" lon="31.0091281403"><ele>63.10</ele><time>2026-08-31T17:44:35Z</time></trkpt><trkpt lat="59.5010303613" lon="31.0090913437"><ele>63.58</ele><time>2026-08-31T17:45:15Z</time></trkpt><trkpt lat="59.5010305289" lon="31.0091575608"><ele>63.58</ele><time>2026-08-31T17:45:46Z</time></trkpt><trkpt lat="59.5010462031" lon="31.0091056768"><ele>61.66</ele><time>2026-08-31T17:46:06Z</time></trkpt><trkpt lat="59.5010154415" lon="31.0092391167"><ele>63.10</ele><time>2026-08-31T17:46:31Z</time></trkpt><trkpt lat="59.5010068081" lon="31.0094376002"><ele>60.22</ele><time>2026-08-31T17:46:43Z</time></trkpt><trkpt lat="59.5009686705" lon="31.0095982812"><ele>61.66</ele><time>2026-08-31T17:46:57Z</time></trkpt><trkpt lat="59.5009089075" lon="31.0098227486"><ele>61.18</ele><time>2026-08-31T17:47:12Z</time></trkpt><trkpt lat="59.5008673333" lon="31.0100804083"><ele>57.82</ele><time>2026-08-31T17:47:28Z</time></trkpt><trkpt lat="59.5008221548" lon="31.0102399159"><ele>58.78</ele><time>2026-08-31T17:47:41Z</time></trkpt><trkpt lat="59.5007953327" lon="31.0104104038"><ele>58.78</ele><time>2026-08-31T17:47:54Z</time></trkpt><trkpt lat="59.5007605478" lon="31.0104515590"><ele>61.66</ele><time>2026-08-31T17:48:12Z</time></trkpt><trkpt lat="59.5007660799" lon="31.0104676522"><ele>62.14</ele><time>2026-08-31T17:48:34Z</time></trkpt><trkpt lat="59.5007737074" lon="31.0105080530"><ele>63.10</ele><time>2026-08-31T17:48:56Z</time></trkpt><trkpt lat="59.5007397607" lon="31.0107731726"><ele>60.70</ele><time>2026-08-31T17:49:11Z</time></trkpt><trkpt lat="59.5006901398" lon="31.0109434929"><ele>58.78</ele><time>2026-08-31T17:49:23Z</time></trkpt><trkpt lat="59.5006495714" lon="31.0110739153"><ele>58.30</ele><time>2026-08-31T17:49:36Z</time></trkpt><trkpt lat="59.5006364956" lon="31.0110409744"><ele>58.78</ele><time>2026-08-31T17:50:07Z</time></trkpt><trkpt lat="59.5006367471" lon="31.0113003943"><ele>59.74</ele><time>2026-08-31T17:50:34Z</time></trkpt><trkpt lat="59.5006049797" lon="31.0114992131"><ele>59.74</ele><time>2026-08-31T17:50:48Z</time></trkpt><trkpt lat="59.5005810913" lon="31.0116935894"><ele>59.26</ele><time>2026-08-31T17:51:01Z</time></trkpt><trkpt lat="59.5005358290" lon="31.0117975250"><ele>59.74</ele><time>2026-08-31T17:51:16Z</time></trkpt><trkpt lat="59.5004549436" lon="31.0119490698"><ele>60.70</ele><time>2026-08-31T17:51:30Z</time></trkpt><trkpt lat="59.5003643353" lon="31.0121233296"><ele>60.70</ele><time>2026-08-31T17:51:44Z</time></trkpt><trkpt lat="59.5002609864" lon="31.0123282671"><ele>60.70</ele><time>2026-08-31T17:52:01Z</time></trkpt><trkpt lat="59.5002376009" lon="31.0123477969"><ele>58.78</ele><time>2026-08-31T17:52:18Z</time></trkpt><trkpt lat="59.5002411213" lon="31.0124344658"><ele>58.30</ele><time>2026-08-31T17:52:51Z</time></trkpt><trkpt lat="59.5001710486" lon="31.0125005990"><ele>60.70</ele><time>2026-08-31T17:53:08Z</time></trkpt><trkpt lat="59.5001358446" lon="31.0126033612"><ele>60.22</ele><time>2026-08-31T17:53:19Z</time></trkpt><trkpt lat="59.5000709686" lon="31.0127224680"><ele>59.74</ele><time>2026-08-31T17:53:33Z</time></trkpt><trkpt lat="59.5000164863" lon="31.0128635354"><ele>57.82</ele><time>2026-08-31T17:53:46Z</time></trkpt><trkpt lat="59.4999552984" lon="31.0129847378"><ele>57.34</ele><time>2026-08-31T17:53:59Z</time></trkpt><trkpt lat="59.4999294821" lon="31.0132048465"><ele>57.34</ele><time>2026-08-31T17:54:14Z</time></trkpt><trkpt lat="59.4999362715" lon="31.0134284757"><ele>56.37</ele><time>2026-08-31T17:54:28Z</time></trkpt><trkpt lat="59.4999376126" lon="31.0136847105"><ele>55.89</ele><time>2026-08-31T17:54:43Z</time></trkpt><trkpt lat="59.4999236148" lon="31.0138460621"><ele>54.45</ele><time>2026-08-31T17:54:59Z</time></trkpt><trkpt lat="59.4998979662" lon="31.0140406899"><ele>55.41</ele><time>2026-08-31T17:55:11Z</time></trkpt><trkpt lat="59.4998994749" lon="31.0140462220"><ele>53.01</ele><time>2026-08-31T17:55:48Z</time></trkpt><trkpt lat="59.4998641033" lon="31.0142214037"><ele>60.22</ele><time>2026-08-31T17:56:16Z</time></trkpt><trkpt lat="59.4998421427" lon="31.0144152772"><ele>60.22</ele><time>2026-08-31T17:56:31Z</time></trkpt><trkpt lat="59.4997920189" lon="31.0146221425"><ele>59.26</ele><time>2026-08-31T17:56:46Z</time></trkpt><trkpt lat="59.4997434039" lon="31.0148280859"><ele>57.34</ele><time>2026-08-31T17:57:00Z</time></trkpt><trkpt lat="59.4997389615" lon="31.0149818938"><ele>55.89</ele><time>2026-08-31T17:57:16Z</time></trkpt><trkpt lat="59.4997433200" lon="31.0149727575"><ele>57.82</ele><time>2026-08-31T17:57:37Z</time></trkpt><trkpt lat="59.4997247960" lon="31.0149419121"><ele>56.86</ele><time>2026-08-31T17:58:10Z</time></trkpt><trkpt lat="59.4997636881" lon="31.0152366199"><ele>56.86</ele><time>2026-08-31T17:58:39Z</time></trkpt><trkpt lat="59.4997371174" lon="31.0153932776"><ele>56.86</ele><time>2026-08-31T17:58:53Z</time></trkpt><trkpt lat="59.4996945374" lon="31.0155931860"><ele>56.86</ele><time>2026-08-31T17:59:07Z</time></trkpt><trkpt lat="59.4996593334" lon="31.0157580581"><ele>56.37</ele><time>2026-08-31T17:59:19Z</time></trkpt><trkpt lat="59.4996408094" lon="31.0156973731"><ele>54.45</ele><time>2026-08-31T17:59:48Z</time></trkpt><trkpt lat="59.4996374566" lon="31.0157656856"><ele>55.41</ele><time>2026-08-31T18:00:16Z</time></trkpt><trkpt lat="59.4996289071" lon="31.0156682041"><ele>58.78</ele><time>2026-08-31T18:00:39Z</time></trkpt><trkpt lat="59.4996331818" lon="31.0157106165"><ele>57.82</ele><time>2026-08-31T18:01:09Z</time></trkpt><trkpt lat="59.4995538890" lon="31.0157806892"><ele>58.30</ele><time>2026-08-31T18:01:39Z</time></trkpt><trkpt lat="59.4995952118" lon="31.0156884044"><ele>58.78</ele><time>2026-08-31T18:02:07Z</time></trkpt><trkpt lat="59.4996017497" lon="31.0156459082"><ele>62.14</ele><time>2026-08-31T18:02:30Z</time></trkpt><trkpt lat="59.4996144064" lon="31.0156942718"><ele>61.18</ele><time>2026-08-31T18:02:58Z</time></trkpt><trkpt lat="59.4996235427" lon="31.0158887319"><ele>61.18</ele><time>2026-08-31T18:03:20Z</time></trkpt><trkpt lat="59.4995969720" lon="31.0161000397"><ele>58.78</ele><time>2026-08-31T18:03:35Z</time></trkpt><trkpt lat="59.4995444175" lon="31.0162816755"><ele>57.82</ele><time>2026-08-31T18:03:48Z</time></trkpt><trkpt lat="59.4994729199" lon="31.0164089128"><ele>57.82</ele><time>2026-08-31T18:04:01Z</time></trkpt><trkpt lat="59.4994204491" lon="31.0165797360"><ele>57.82</ele><time>2026-08-31T18:04:14Z</time></trkpt><trkpt lat="59.4993947167" lon="31.0166217294"><ele>57.34</ele><time>2026-08-31T18:04:18Z</time></trkpt><trkpt lat="59.4993404020" lon="31.0167989228"><ele>57.82</ele><time>2026-08-31T18:04:31Z</time></trkpt><trkpt lat="59.4992863387" lon="31.0169929639"><ele>57.34</ele><time>2026-08-31T18:04:45Z</time></trkpt><trkpt lat="59.4992617797" lon="31.0171953868"><ele>54.45</ele><time>2026-08-31T18:04:59Z</time></trkpt><trkpt lat="59.4992178585" lon="31.0173874162"><ele>54.45</ele><time>2026-08-31T18:05:13Z</time></trkpt><trkpt lat="59.4991764519" lon="31.0175562277"><ele>54.45</ele><time>2026-08-31T18:05:27Z</time></trkpt><trkpt lat="59.4991761167" lon="31.0175024159"><ele>51.09</ele><time>2026-08-31T18:05:56Z</time></trkpt><trkpt lat="59.4991484564" lon="31.0177386180"><ele>57.34</ele><time>2026-08-31T18:06:29Z</time></trkpt><trkpt lat="59.4990914594" lon="31.0178837925"><ele>60.70</ele><time>2026-08-31T18:06:42Z</time></trkpt><trkpt lat="59.4990921300" lon="31.0179005563"><ele>60.70</ele><time>2026-08-31T18:06:43Z</time></trkpt><trkpt lat="59.4991115760" lon="31.0180921666"><ele>59.74</ele><time>2026-08-31T18:06:58Z</time></trkpt><trkpt lat="59.4991031103" lon="31.0181263648"><ele>60.22</ele><time>2026-08-31T18:07:01Z</time></trkpt><trkpt lat="59.4990680739" lon="31.0183105990"><ele>59.26</ele><time>2026-08-31T18:07:14Z</time></trkpt><trkpt lat="59.4990220573" lon="31.0185190570"><ele>58.78</ele><time>2026-08-31T18:07:28Z</time></trkpt><trkpt lat="59.4990049582" lon="31.0187365673"><ele>57.82</ele><time>2026-08-31T18:07:42Z</time></trkpt><trkpt lat="59.4989717659" lon="31.0189285129"><ele>56.86</ele><time>2026-08-31T18:07:56Z</time></trkpt><trkpt lat="59.4989570975" lon="31.0189612024"><ele>53.97</ele><time>2026-08-31T18:08:13Z</time></trkpt><trkpt lat="59.4989507273" lon="31.0189814027"><ele>54.45</ele><time>2026-08-31T18:08:50Z</time></trkpt><trkpt lat="59.4989340473" lon="31.0190901160"><ele>58.78</ele><time>2026-08-31T18:09:04Z</time></trkpt><trkpt lat="59.4989254139" lon="31.0189359728"><ele>58.30</ele><time>2026-08-31T18:09:21Z</time></trkpt><trkpt lat="59.4989187084" lon="31.0189283453"><ele>59.26</ele><time>2026-08-31T18:09:48Z</time></trkpt><trkpt lat="59.4988942333" lon="31.0189353023"><ele>60.70</ele><time>2026-08-31T18:10:23Z</time></trkpt><trkpt lat="59.4988982566" lon="31.0189915448"><ele>58.30</ele><time>2026-08-31T18:10:55Z</time></trkpt><trkpt lat="59.4989251625" lon="31.0189710930"><ele>60.70</ele><time>2026-08-31T18:11:21Z</time></trkpt><trkpt lat="59.4989654794" lon="31.0189040378"><ele>61.18</ele><time>2026-08-31T18:11:53Z</time></trkpt><trkpt lat="59.4989723526" lon="31.0188941471"><ele>63.10</ele><time>2026-08-31T18:12:17Z</time></trkpt><trkpt lat="59.4989797287" lon="31.0189370625"><ele>67.43</ele><time>2026-08-31T18:12:47Z</time></trkpt><trkpt lat="59.4989793934" lon="31.0190622881"><ele>64.55</ele><time>2026-08-31T18:13:08Z</time></trkpt><trkpt lat="59.4989743643" lon="31.0191456880"><ele>63.58</ele><time>2026-08-31T18:13:18Z</time></trkpt><trkpt lat="59.4989600312" lon="31.0193300899"><ele>61.18</ele><time>2026-08-31T18:13:30Z</time></trkpt><trkpt lat="59.4989251625" lon="31.0194872506"><ele>58.30</ele><time>2026-08-31T18:13:43Z</time></trkpt><trkpt lat="59.4988687523" lon="31.0196176730"><ele>57.34</ele><time>2026-08-31T18:13:55Z</time></trkpt><trkpt lat="59.4988812413" lon="31.0197382886"><ele>57.34</ele><time>2026-08-31T18:14:09Z</time></trkpt><trkpt lat="59.4988460373" lon="31.0199322458"><ele>56.86</ele><time>2026-08-31T18:14:22Z</time></trkpt><trkpt lat="59.4988239091" lon="31.0199109558"><ele>57.82</ele><time>2026-08-31T18:14:41Z</time></trkpt><trkpt lat="59.4988379069" lon="31.0199827887"><ele>58.30</ele><time>2026-08-31T18:15:11Z</time></trkpt><trkpt lat="59.4988193829" lon="31.0201718844"><ele>57.34</ele><time>2026-08-31T18:15:24Z</time></trkpt><trkpt lat="59.4987421855" lon="31.0203016363"><ele>58.30</ele><time>2026-08-31T18:15:37Z</time></trkpt><trkpt lat="59.4987046346" lon="31.0203483235"><ele>57.82</ele><time>2026-08-31T18:15:43Z</time></trkpt><trkpt lat="59.4985978492" lon="31.0205056518"><ele>58.30</ele><time>2026-08-31T18:15:59Z</time></trkpt><trkpt lat="59.4985256810" lon="31.0205976851"><ele>57.34</ele><time>2026-08-31T18:16:13Z</time></trkpt><trkpt lat="59.4984562788" lon="31.0207306221"><ele>57.82</ele><time>2026-08-31T18:16:25Z</time></trkpt><trkpt lat="59.4984245114" lon="31.0209423490"><ele>57.34</ele><time>2026-08-31T18:16:38Z</time></trkpt><trkpt lat="59.4984016288" lon="31.0209187958"><ele>56.86</ele><time>2026-08-31T18:16:57Z</time></trkpt><trkpt lat="59.4984542672" lon="31.0209658183"><ele>56.37</ele><time>2026-08-31T18:17:31Z</time></trkpt><trkpt lat="59.4983805902" lon="31.0211000964"><ele>57.34</ele><time>2026-08-31T18:17:41Z</time></trkpt><trkpt lat="59.4983432908" lon="31.0213347059"><ele>57.82</ele><time>2026-08-31T18:17:55Z</time></trkpt><trkpt lat="59.4983173907" lon="31.0215880070"><ele>56.86</ele><time>2026-08-31T18:18:09Z</time></trkpt><trkpt lat="59.4983110204" lon="31.0218489356"><ele>57.34</ele><time>2026-08-31T18:18:23Z</time></trkpt><trkpt lat="59.4982603937" lon="31.0220684577"><ele>57.34</ele><time>2026-08-31T18:18:36Z</time></trkpt><trkpt lat="59.4981911592" lon="31.0222257860"><ele>57.34</ele><time>2026-08-31T18:18:50Z</time></trkpt><trkpt lat="59.4981666841" lon="31.0222369339"><ele>57.82</ele><time>2026-08-31T18:19:05Z</time></trkpt><trkpt lat="59.4981800951" lon="31.0222610738"><ele>61.18</ele><time>2026-08-31T18:19:33Z</time></trkpt><trkpt lat="59.4982305542" lon="31.0222923383"><ele>59.74</ele><time>2026-08-31T18:20:05Z</time></trkpt><trkpt lat="59.4981811009" lon="31.0222437233"><ele>58.30</ele><time>2026-08-31T18:20:25Z</time></trkpt><trkpt lat="59.4981267024" lon="31.0224046558"><ele>58.30</ele><time>2026-08-31T18:20:44Z</time></trkpt><trkpt lat="59.4980567973" lon="31.0225509200"><ele>58.30</ele><time>2026-08-31T18:20:57Z</time></trkpt><trkpt lat="59.4979814440" lon="31.0227615573"><ele>57.82</ele><time>2026-08-31T18:21:12Z</time></trkpt><trkpt lat="59.4979421329" lon="31.0229974240"><ele>57.34</ele><time>2026-08-31T18:21:27Z</time></trkpt><trkpt lat="59.4979036599" lon="31.0231645592"><ele>55.89</ele><time>2026-08-31T18:21:40Z</time></trkpt><trkpt lat="59.4978780113" lon="31.0232480429"><ele>55.41</ele><time>2026-08-31T18:21:55Z</time></trkpt><trkpt lat="59.4978415500" lon="31.0232904553"><ele>55.89</ele><time>2026-08-31T18:22:19Z</time></trkpt><trkpt lat="59.4978118781" lon="31.0233384836"><ele>58.30</ele><time>2026-08-31T18:22:30Z</time></trkpt><trkpt lat="59.4977687951" lon="31.0234357137"><ele>61.66</ele><time>2026-08-31T18:22:51Z</time></trkpt><trkpt lat="59.4977525342" lon="31.0233981628"><ele>59.74</ele><time>2026-08-31T18:23:10Z</time></trkpt><trkpt lat="59.4977978803" lon="31.0234374739"><ele>60.22</ele><time>2026-08-31T18:23:34Z</time></trkpt><trkpt lat="59.4978328329" lon="31.0233099014"><ele>59.26</ele><time>2026-08-31T18:23:59Z</time></trkpt><trkpt lat="59.4978350960" lon="31.0233371425"><ele>57.82</ele><time>2026-08-31T18:24:33Z</time></trkpt><trkpt lat="59.4978333358" lon="31.0232603643"><ele>57.82</ele><time>2026-08-31T18:25:05Z</time></trkpt><trkpt lat="59.4978127163" lon="31.0232789721"><ele>59.74</ele><time>2026-08-31T18:25:28Z</time></trkpt><trkpt lat="59.4977925159" lon="31.0232430138"><ele>59.26</ele><time>2026-08-31T18:26:04Z</time></trkpt><trkpt lat="59.4977952819" lon="31.0232952330"><ele>54.93</ele><time>2026-08-31T18:26:26Z</time></trkpt><trkpt lat="59.4977930188" lon="31.0233316943"><ele>59.26</ele><time>2026-08-31T18:26:55Z</time></trkpt><trkpt lat="59.4977710582" lon="31.0233116616"><ele>58.78</ele><time>2026-08-31T18:27:24Z</time></trkpt><trkpt lat="59.4978010654" lon="31.0232870188"><ele>57.82</ele><time>2026-08-31T18:27:48Z</time></trkpt><trkpt lat="59.4977917615" lon="31.0233455244"><ele>60.70</ele><time>2026-08-31T18:28:17Z</time></trkpt><trkpt lat="59.4977318309" lon="31.0233122483"><ele>56.86</ele><time>2026-08-31T18:28:46Z</time></trkpt><trkpt lat="59.4977559708" lon="31.0233280901"><ele>58.78</ele><time>2026-08-31T18:29:16Z</time></trkpt><trkpt lat="59.4977586530" lon="31.0233688261"><ele>61.18</ele><time>2026-08-31T18:29:49Z</time></trkpt><trkpt lat="59.4977876544" lon="31.0233151820"><ele>59.74</ele><time>2026-08-31T18:30:16Z</time></trkpt><trkpt lat="59.4977523666" lon="31.0232608672"><ele>59.74</ele><time>2026-08-31T18:30:43Z</time></trkpt><trkpt lat="59.4977540430" lon="31.0233201273"><ele>61.18</ele><time>2026-08-31T18:31:10Z</time></trkpt><trkpt lat="59.4977905881" lon="31.0233409982"><ele>58.30</ele><time>2026-08-31T18:31:33Z</time></trkpt><trkpt lat="59.4978166558" lon="31.0233534873"><ele>61.18</ele><time>2026-08-31T18:31:52Z</time></trkpt><trkpt lat="59.4978031609" lon="31.0233493801"><ele>64.07</ele><time>2026-08-31T18:32:17Z</time></trkpt><trkpt lat="59.4977732375" lon="31.0233551636"><ele>59.26</ele><time>2026-08-31T18:32:52Z</time></trkpt><trkpt lat="59.4977552164" lon="31.0233736038"><ele>58.30</ele><time>2026-08-31T18:33:26Z</time></trkpt><trkpt lat="59.4977876544" lon="31.0233198758"><ele>59.26</ele><time>2026-08-31T18:34:01Z</time></trkpt><trkpt lat="59.4977955334" lon="31.0233590193"><ele>57.82</ele><time>2026-08-31T18:34:30Z</time></trkpt><trkpt lat="59.4977786858" lon="31.0233256593"><ele>55.89</ele><time>2026-08-31T18:35:02Z</time></trkpt><trkpt lat="59.4977763388" lon="31.0232969932"><ele>56.37</ele><time>2026-08-31T18:35:24Z</time></trkpt><trkpt lat="59.4977909233" lon="31.0233172774"><ele>60.70</ele><time>2026-08-31T18:35:55Z</time></trkpt><trkpt lat="59.4978001434" lon="31.0233495478"><ele>61.18</ele><time>2026-08-31T18:36:15Z</time></trkpt><trkpt lat="59.4977899175" lon="31.0233605281"><ele>61.18</ele><time>2026-08-31T18:36:44Z</time></trkpt><trkpt lat="59.4977970421" lon="31.0233376455"><ele>59.26</ele><time>2026-08-31T18:37:16Z</time></trkpt><trkpt lat="59.4977821223" lon="31.0233497154"><ele>56.86</ele><time>2026-08-31T18:37:54Z</time></trkpt><trkpt lat="59.4977941923" lon="31.0233358853"><ele>63.10</ele><time>2026-08-31T18:38:33Z</time></trkpt><trkpt lat="59.4978150632" lon="31.0233544093"><ele>65.03</ele><time>2026-08-31T18:39:06Z</time></trkpt><trkpt lat="59.4977771770" lon="31.0233544931"><ele>63.10</ele><time>2026-08-31T18:39:40Z</time></trkpt><trkpt lat="59.4977815356" lon="31.0232910421"><ele>59.74</ele><time>2026-08-31T18:40:14Z</time></trkpt><trkpt lat="59.4977846369" lon="31.0232685786"><ele>60.22</ele><time>2026-08-31T18:40:47Z</time></trkpt><trkpt lat="59.4977954496" lon="31.0232860968"><ele>62.14</ele><time>2026-08-31T18:41:17Z</time></trkpt><trkpt lat="59.4978090283" lon="31.0232954845"><ele>61.66</ele><time>2026-08-31T18:41:47Z</time></trkpt><trkpt lat="59.4977737404" lon="31.0233150981"><ele>60.22</ele><time>2026-08-31T18:42:14Z</time></trkpt><trkpt lat="59.4977658615" lon="31.0233295988"><ele>58.78</ele><time>2026-08-31T18:42:38Z</time></trkpt><trkpt lat="59.4977329206" lon="31.0232834984"><ele>55.89</ele><time>2026-08-31T18:43:09Z</time></trkpt><trkpt lat="59.4977806136" lon="31.0233170260"><ele>56.86</ele><time>2026-08-31T18:43:35Z</time></trkpt><trkpt lat="59.4977825414" lon="31.0233480390"><ele>58.78</ele><time>2026-08-31T18:44:11Z</time></trkpt><trkpt lat="59.4977907557" lon="31.0232894495"><ele>59.26</ele><time>2026-08-31T18:44:34Z</time></trkpt><trkpt lat="59.4977799430" lon="31.0233608633"><ele>60.70</ele><time>2026-08-31T18:45:08Z</time></trkpt><trkpt lat="59.4977803621" lon="31.0233472008"><ele>61.66</ele><time>2026-08-31T18:45:35Z</time></trkpt><trkpt lat="59.4977928512" lon="31.0233245697"><ele>57.34</ele><time>2026-08-31T18:46:08Z</time></trkpt><trkpt lat="59.4978102855" lon="31.0233196244"><ele>56.37</ele><time>2026-08-31T18:46:34Z</time></trkpt><trkpt lat="59.4978159852" lon="31.0233730171"><ele>59.74</ele><time>2026-08-31T18:46:53Z</time></trkpt><trkpt lat="59.4978321623" lon="31.0233541578"><ele>60.70</ele><time>2026-08-31T18:47:26Z</time></trkpt><trkpt lat="59.4978382811" lon="31.0233685747"><ele>59.74</ele><time>2026-08-31T18:47:56Z</time></trkpt><trkpt lat="59.4978081062" lon="31.0233939718"><ele>59.74</ele><time>2026-08-31T18:48:32Z</time></trkpt><trkpt lat="59.4978163205" lon="31.0234670620"><ele>61.66</ele><time>2026-08-31T18:49:06Z</time></trkpt><trkpt lat="59.4977592397" lon="31.0231951531"><ele>57.82</ele><time>2026-08-31T18:49:39Z</time></trkpt><trkpt lat="59.4977386203" lon="31.0232264176"><ele>56.37</ele><time>2026-08-31T18:50:04Z</time></trkpt><trkpt lat="59.4977595750" lon="31.0232989211"><ele>56.86</ele><time>2026-08-31T18:50:38Z</time></trkpt><trkpt lat="59.4977915101" lon="31.0232128389"><ele>59.74</ele><time>2026-08-31T18:51:13Z</time></trkpt><trkpt lat="59.4978024065" lon="31.0233099852"><ele>57.34</ele><time>2026-08-31T18:51:46Z</time></trkpt><trkpt lat="59.4978255406" lon="31.0232837498"><ele>58.30</ele><time>2026-08-31T18:52:14Z</time></trkpt><trkpt lat="59.4978099503" lon="31.0233327840"><ele>59.26</ele><time>2026-08-31T18:52:41Z</time></trkpt><trkpt lat="59.4977793563" lon="31.0232275072"><ele>56.37</ele><time>2026-08-31T18:53:12Z</time></trkpt><trkpt lat="59.4977666158" lon="31.0232094023"><ele>58.30</ele><time>2026-08-31T18:53:49Z</time></trkpt><trkpt lat="59.4977889955" lon="31.0232849233"><ele>57.82</ele><time>2026-08-31T18:54:14Z</time></trkpt><trkpt lat="59.4977930188" lon="31.0232836660"><ele>60.22</ele><time>2026-08-31T18:54:31Z</time></trkpt><trkpt lat="59.4977976289" lon="31.0233232286"><ele>59.26</ele><time>2026-08-31T18:54:55Z</time></trkpt><trkpt lat="59.4977696333" lon="31.0233076382"><ele>58.78</ele><time>2026-08-31T18:55:14Z</time></trkpt><trkpt lat="59.4977692980" lon="31.0233162716"><ele>60.22</ele><time>2026-08-31T18:55:45Z</time></trkpt><trkpt lat="59.4977825414" lon="31.0232902877"><ele>63.58</ele><time>2026-08-31T18:56:08Z</time></trkpt><trkpt lat="59.4976419769" lon="31.0231764615"><ele>61.18</ele><time>2026-08-31T18:56:25Z</time></trkpt><trkpt lat="59.4976940285" lon="31.0231972486"><ele>58.30</ele><time>2026-08-31T18:56:39Z</time></trkpt><trkpt lat="59.4976809528" lon="31.0231855139"><ele>56.86</ele><time>2026-08-31T18:57:14Z</time></trkpt><trkpt lat="59.4976667035" lon="31.0231866036"><ele>56.37</ele><time>2026-08-31T18:57:15Z</time></trkpt><trkpt lat="59.4974719081" lon="31.0230420996"><ele>56.86</ele><time>2026-08-31T18:57:31Z</time></trkpt><trkpt lat="59.4973434135" lon="31.0229675006"><ele>56.86</ele><time>2026-08-31T18:57:46Z</time></trkpt><trkpt lat="59.4972072076" lon="31.0228733718"><ele>55.41</ele><time>2026-08-31T18:57:59Z</time></trkpt><trkpt lat="59.4970429223" lon="31.0227385908"><ele>53.97</ele><time>2026-08-31T18:58:14Z</time></trkpt><trkpt lat="59.4969155174" lon="31.0226493236"><ele>54.45</ele><time>2026-08-31T18:58:28Z</time></trkpt><trkpt lat="59.4967898726" lon="31.0225353297"><ele>54.45</ele><time>2026-08-31T18:58:43Z</time></trkpt><trkpt lat="59.4967065565" lon="31.0224455595"><ele>53.49</ele><time>2026-08-31T18:59:00Z</time></trkpt><trkpt lat="59.4966273475" lon="31.0224476550"><ele>53.97</ele><time>2026-08-31T18:59:12Z</time></trkpt><trkpt lat="59.4965273514" lon="31.0224378482"><ele>54.93</ele><time>2026-08-31T18:59:29Z</time></trkpt><trkpt lat="59.4964675885" lon="31.0223112814"><ele>55.41</ele><time>2026-08-31T18:59:42Z</time></trkpt><trkpt lat="59.4963695202" lon="31.0222290549"><ele>54.93</ele><time>2026-08-31T18:59:57Z</time></trkpt><trkpt lat="59.4963906426" lon="31.0222099442"><ele>53.01</ele><time>2026-08-31T19:00:19Z</time></trkpt><trkpt lat="59.4963003695" lon="31.0222102795"><ele>54.45</ele><time>2026-08-31T19:00:44Z</time></trkpt><trkpt lat="59.4961986970" lon="31.0220638476"><ele>57.34</ele><time>2026-08-31T19:01:00Z</time></trkpt><trkpt lat="59.4961360004" lon="31.0219840519"><ele>59.26</ele><time>2026-08-31T19:01:13Z</time></trkpt><trkpt lat="59.4961120281" lon="31.0218436550"><ele>58.78</ele><time>2026-08-31T19:01:26Z</time></trkpt><trkpt lat="59.4961112738" lon="31.0218003206"><ele>57.82</ele><time>2026-08-31T19:01:41Z</time></trkpt><trkpt lat="59.4959922507" lon="31.0217378754"><ele>58.30</ele><time>2026-08-31T19:01:57Z</time></trkpt><trkpt lat="59.4959521852" lon="31.0215669684"><ele>58.30</ele><time>2026-08-31T19:02:12Z</time></trkpt><trkpt lat="59.4959002174" lon="31.0214698222"><ele>58.78</ele><time>2026-08-31T19:02:24Z</time></trkpt><trkpt lat="59.4958440587" lon="31.0212528985"><ele>60.22</ele><time>2026-08-31T19:02:40Z</time></trkpt><trkpt lat="59.4957395364" lon="31.0211116634"><ele>60.22</ele><time>2026-08-31T19:02:54Z</time></trkpt><trkpt lat="59.4956725650" lon="31.0209457017"><ele>58.78</ele><time>2026-08-31T19:03:08Z</time></trkpt><trkpt lat="59.4955904223" lon="31.0209025349"><ele>57.34</ele><time>2026-08-31T19:03:21Z</time></trkpt><trkpt lat="59.4955499377" lon="31.0207162052"><ele>55.89</ele><time>2026-08-31T19:03:34Z</time></trkpt><trkpt lat="59.4955129735" lon="31.0205807537"><ele>51.57</ele><time>2026-08-31T19:03:55Z</time></trkpt><trkpt lat="59.4954315852" lon="31.0206366610"><ele>53.97</ele><time>2026-08-31T19:04:20Z</time></trkpt><trkpt lat="59.4953258056" lon="31.0205860343"><ele>58.30</ele><time>2026-08-31T19:04:34Z</time></trkpt><trkpt lat="59.4952955469" lon="31.0205539316"><ele>59.26</ele><time>2026-08-31T19:04:51Z</time></trkpt><trkpt lat="59.4952451717" lon="31.0204774048"><ele>58.78</ele><time>2026-08-31T19:05:09Z</time></trkpt><trkpt lat="59.4951409008" lon="31.0204248503"><ele>59.26</ele><time>2026-08-31T19:05:24Z</time></trkpt><trkpt lat="59.4950731751" lon="31.0203138739"><ele>57.82</ele><time>2026-08-31T19:05:39Z</time></trkpt><trkpt lat="59.4949464407" lon="31.0201843735"><ele>57.34</ele><time>2026-08-31T19:05:55Z</time></trkpt><trkpt lat="59.4948300160" lon="31.0202089325"><ele>55.89</ele><time>2026-08-31T19:06:11Z</time></trkpt><trkpt lat="59.4947763719" lon="31.0201712139"><ele>55.41</ele><time>2026-08-31T19:06:23Z</time></trkpt><trkpt lat="59.4947343785" lon="31.0201456491"><ele>57.34</ele><time>2026-08-31T19:06:36Z</time></trkpt><trkpt lat="59.4947409164" lon="31.0200660210"><ele>54.93</ele><time>2026-08-31T19:06:52Z</time></trkpt><trkpt lat="59.4946925528" lon="31.0201126244"><ele>55.89</ele><time>2026-08-31T19:07:17Z</time></trkpt><trkpt lat="59.4946043752" lon="31.0199616663"><ele>58.78</ele><time>2026-08-31T19:07:30Z</time></trkpt><trkpt lat="59.4944825862" lon="31.0199233610"><ele>59.74</ele><time>2026-08-31T19:07:43Z</time></trkpt><trkpt lat="59.4944061432" lon="31.0198443197"><ele>57.34</ele><time>2026-08-31T19:07:57Z</time></trkpt><trkpt lat="59.4942979328" lon="31.0198804457"><ele>56.37</ele><time>2026-08-31T19:08:10Z</time></trkpt><trkpt lat="59.4942059834" lon="31.0197401326"><ele>55.41</ele><time>2026-08-31T19:08:23Z</time></trkpt><trkpt lat="59.4941766467" lon="31.0197194293"><ele>53.97</ele><time>2026-08-31T19:08:39Z</time></trkpt><trkpt lat="59.4941406045" lon="31.0196722392"><ele>53.49</ele><time>2026-08-31T19:08:52Z</time></trkpt><trkpt lat="59.4940602221" lon="31.0195714887"><ele>53.49</ele><time>2026-08-31T19:09:03Z</time></trkpt><trkpt lat="59.4939686079" lon="31.0194707382"><ele>53.49</ele><time>2026-08-31T19:09:17Z</time></trkpt><trkpt lat="59.4938922487" lon="31.0194286611"><ele>52.53</ele><time>2026-08-31T19:09:31Z</time></trkpt><trkpt lat="59.4938640017" lon="31.0193815548"><ele>53.97</ele><time>2026-08-31T19:09:48Z</time></trkpt><trkpt lat="59.4938412029" lon="31.0192953888"><ele>56.37</ele><time>2026-08-31T19:10:05Z</time></trkpt><trkpt lat="59.4937925041" lon="31.0193049442"><ele>58.30</ele><time>2026-08-31T19:10:18Z</time></trkpt><trkpt lat="59.4937511813" lon="31.0192585085"><ele>53.97</ele><time>2026-08-31T19:10:39Z</time></trkpt><trkpt lat="59.4936688710" lon="31.0193220433"><ele>59.74</ele><time>2026-08-31T19:11:01Z</time></trkpt><trkpt lat="59.4935953617" lon="31.0192261543"><ele>58.78</ele><time>2026-08-31T19:11:15Z</time></trkpt><trkpt lat="59.4935276359" lon="31.0191724263"><ele>56.37</ele><time>2026-08-31T19:11:32Z</time></trkpt><trkpt lat="59.4934161566" lon="31.0191379767"><ele>57.34</ele><time>2026-08-31T19:11:48Z</time></trkpt><trkpt lat="59.4932983071" lon="31.0190709215"><ele>58.30</ele><time>2026-08-31T19:12:03Z</time></trkpt><trkpt lat="59.4932411425" lon="31.0189663153"><ele>55.89</ele><time>2026-08-31T19:12:18Z</time></trkpt><trkpt lat="59.4931765180" lon="31.0188439395"><ele>55.41</ele><time>2026-08-31T19:12:31Z</time></trkpt><trkpt lat="59.4930440839" lon="31.0187225696"><ele>58.30</ele><time>2026-08-31T19:12:46Z</time></trkpt><trkpt lat="59.4929394778" lon="31.0187291913"><ele>56.37</ele><time>2026-08-31T19:13:01Z</time></trkpt><trkpt lat="59.4928576704" lon="31.0186098330"><ele>55.41</ele><time>2026-08-31T19:13:15Z</time></trkpt><trkpt lat="59.4928135816" lon="31.0185339767"><ele>54.93</ele><time>2026-08-31T19:13:31Z</time></trkpt><trkpt lat="59.4927741028" lon="31.0186192207"><ele>52.53</ele><time>2026-08-31T19:13:57Z</time></trkpt><trkpt lat="59.4926175289" lon="31.0186072346"><ele>57.34</ele><time>2026-08-31T19:14:16Z</time></trkpt><trkpt lat="59.4925780501" lon="31.0184815899"><ele>59.26</ele><time>2026-08-31T19:14:29Z</time></trkpt><trkpt lat="59.4924991764" lon="31.0184000339"><ele>59.26</ele><time>2026-08-31T19:14:48Z</time></trkpt><trkpt lat="59.4924152736" lon="31.0184390936"><ele>56.86</ele><time>2026-08-31T19:15:05Z</time></trkpt><trkpt lat="59.4922991842" lon="31.0182971880"><ele>55.89</ele><time>2026-08-31T19:15:24Z</time></trkpt><trkpt lat="59.4922238309" lon="31.0182866268"><ele>61.66</ele><time>2026-08-31T19:15:40Z</time></trkpt><trkpt lat="59.4921010360" lon="31.0182379279"><ele>61.66</ele><time>2026-08-31T19:15:56Z</time></trkpt><trkpt lat="59.4919979386" lon="31.0181982815"><ele>61.18</ele><time>2026-08-31T19:16:10Z</time></trkpt><trkpt lat="59.4919444621" lon="31.0181494150"><ele>56.37</ele><time>2026-08-31T19:16:35Z</time></trkpt><trkpt lat="59.4918520935" lon="31.0180970281"><ele>56.86</ele><time>2026-08-31T19:16:52Z</time></trkpt><trkpt lat="59.4917616528" lon="31.0179524403"><ele>56.37</ele><time>2026-08-31T19:17:08Z</time></trkpt><trkpt lat="59.4916225132" lon="31.0178679507"><ele>58.78</ele><time>2026-08-31T19:17:24Z</time></trkpt><trkpt lat="59.4915923383" lon="31.0177598242"><ele>55.89</ele><time>2026-08-31T19:17:39Z</time></trkpt><trkpt lat="59.4915586431" lon="31.0178238619"><ele>51.09</ele><time>2026-08-31T19:18:05Z</time></trkpt><trkpt lat="59.4914788473" lon="31.0175915156"><ele>58.78</ele><time>2026-08-31T19:18:22Z</time></trkpt><trkpt lat="59.4914093614" lon="31.0176288988"><ele>60.70</ele><time>2026-08-31T19:18:42Z</time></trkpt><trkpt lat="59.4913095329" lon="31.0175999813"><ele>58.78</ele><time>2026-08-31T19:18:56Z</time></trkpt><trkpt lat="59.4912192598" lon="31.0174438264"><ele>60.22</ele><time>2026-08-31T19:19:10Z</time></trkpt><trkpt lat="59.4910809584" lon="31.0173460096"><ele>57.82</ele><time>2026-08-31T19:19:28Z</time></trkpt><trkpt lat="59.4910481013" lon="31.0171827301"><ele>60.22</ele><time>2026-08-31T19:19:43Z</time></trkpt><trkpt lat="59.4910624344" lon="31.0170627851"><ele>58.30</ele><time>2026-08-31T19:20:10Z</time></trkpt><trkpt lat="59.4910540525" lon="31.0171777848"><ele>57.82</ele><time>2026-08-31T19:20:37Z</time></trkpt><trkpt lat="59.4910067786" lon="31.0170756932"><ele>61.18</ele><time>2026-08-31T19:21:00Z</time></trkpt><trkpt lat="59.4909558166" lon="31.0169824027"><ele>64.07</ele><time>2026-08-31T19:21:19Z</time></trkpt><trkpt lat="59.4908603467" lon="31.0168873519"><ele>62.62</ele><time>2026-08-31T19:21:33Z</time></trkpt><trkpt lat="59.4908091333" lon="31.0168375634"><ele>61.18</ele><time>2026-08-31T19:21:47Z</time></trkpt><trkpt lat="59.4907231349" lon="31.0167691670"><ele>60.22</ele><time>2026-08-31T19:22:03Z</time></trkpt><trkpt lat="59.4906294253" lon="31.0167174507"><ele>59.26</ele><time>2026-08-31T19:22:19Z</time></trkpt><trkpt lat="59.4905448519" lon="31.0165746231"><ele>60.22</ele><time>2026-08-31T19:22:35Z</time></trkpt><trkpt lat="59.4904508907" lon="31.0165221523"><ele>60.22</ele><time>2026-08-31T19:22:50Z</time></trkpt><trkpt lat="59.4903826620" lon="31.0165436100"><ele>56.37</ele><time>2026-08-31T19:23:08Z</time></trkpt><trkpt lat="59.4903342985" lon="31.0163587891"><ele>53.49</ele><time>2026-08-31T19:23:30Z</time></trkpt><trkpt lat="59.4902581070" lon="31.0165122617"><ele>58.78</ele><time>2026-08-31T19:23:55Z</time></trkpt><trkpt lat="59.4901657384" lon="31.0165297799"><ele>57.82</ele><time>2026-08-31T19:24:09Z</time></trkpt><trkpt lat="59.4901178777" lon="31.0162613913"><ele>58.78</ele><time>2026-08-31T19:24:25Z</time></trkpt><trkpt lat="59.4899970945" lon="31.0161951743"><ele>59.26</ele><time>2026-08-31T19:24:40Z</time></trkpt><trkpt lat="59.4899457972" lon="31.0161839426"><ele>58.30</ele><time>2026-08-31T19:24:52Z</time></trkpt><trkpt lat="59.4898449630" lon="31.0160961840"><ele>59.74</ele><time>2026-08-31T19:25:08Z</time></trkpt><trkpt lat="59.4897170551" lon="31.0161245149"><ele>58.78</ele><time>2026-08-31T19:25:23Z</time></trkpt><trkpt lat="59.4896061625" lon="31.0159515962"><ele>58.78</ele><time>2026-08-31T19:25:38Z</time></trkpt><trkpt lat="59.4895001315" lon="31.0158123728"><ele>61.66</ele><time>2026-08-31T19:25:53Z</time></trkpt><trkpt lat="59.4894254487" lon="31.0156278871"><ele>60.22</ele><time>2026-08-31T19:26:07Z</time></trkpt><trkpt lat="59.4894060865" lon="31.0155907553"><ele>59.74</ele><time>2026-08-31T19:26:18Z</time></trkpt><trkpt lat="59.4894425478" lon="31.0154061858"><ele>59.26</ele><time>2026-08-31T19:26:31Z</time></trkpt><trkpt lat="59.4893899933" lon="31.0152838938"><ele>60.22</ele><time>2026-08-31T19:26:47Z</time></trkpt><trkpt lat="59.4893148914" lon="31.0151752643"><ele>62.14</ele><time>2026-08-31T19:27:01Z</time></trkpt><trkpt lat="59.4893243629" lon="31.0150612704"><ele>59.26</ele><time>2026-08-31T19:27:15Z</time></trkpt><trkpt lat="59.4892571401" lon="31.0150766931"><ele>59.26</ele><time>2026-08-31T19:27:27Z</time></trkpt><trkpt lat="59.4891967904" lon="31.0151377972"><ele>58.30</ele><time>2026-08-31T19:27:37Z</time></trkpt><trkpt lat="59.4891335908" lon="31.0149759427"><ele>57.34</ele><time>2026-08-31T19:27:50Z</time></trkpt><trkpt lat="59.4891055115" lon="31.0148332827"><ele>53.49</ele><time>2026-08-31T19:28:23Z</time></trkpt><trkpt lat="59.4890153222" lon="31.0147027764"><ele>59.26</ele><time>2026-08-31T19:28:39Z</time></trkpt><trkpt lat="59.4888971373" lon="31.0146740265"><ele>60.70</ele><time>2026-08-31T19:28:56Z</time></trkpt><trkpt lat="59.4888287410" lon="31.0145058855"><ele>59.74</ele><time>2026-08-31T19:29:12Z</time></trkpt><trkpt lat="59.4886908587" lon="31.0144250840"><ele>60.22</ele><time>2026-08-31T19:29:26Z</time></trkpt><trkpt lat="59.4886233844" lon="31.0144306999"><ele>61.18</ele><time>2026-08-31T19:29:40Z</time></trkpt><trkpt lat="59.4884701632" lon="31.0143624712"><ele>59.74</ele><time>2026-08-31T19:29:58Z</time></trkpt><trkpt lat="59.4883592706" lon="31.0142819211"><ele>57.82</ele><time>2026-08-31T19:30:13Z</time></trkpt><trkpt lat="59.4882658962" lon="31.0141266044"><ele>57.82</ele><time>2026-08-31T19:30:26Z</time></trkpt><trkpt lat="59.4881679956" lon="31.0141237546"><ele>56.86</ele><time>2026-08-31T19:30:38Z</time></trkpt><trkpt lat="59.4880325440" lon="31.0141171329"><ele>58.30</ele><time>2026-08-31T19:30:52Z</time></trkpt><trkpt lat="59.4879730325" lon="31.0139866266"><ele>59.74</ele><time>2026-08-31T19:31:05Z</time></trkpt><trkpt lat="59.4878695160" lon="31.0139014665"><ele>60.70</ele><time>2026-08-31T19:31:19Z</time></trkpt><trkpt lat="59.4877352379" lon="31.0138737224"><ele>57.34</ele><time>2026-08-31T19:31:36Z</time></trkpt><trkpt lat="59.4876444619" lon="31.0137297213"><ele>57.82</ele><time>2026-08-31T19:31:50Z</time></trkpt><trkpt lat="59.4875396043" lon="31.0138407815"><ele>57.82</ele><time>2026-08-31T19:32:06Z</time></trkpt><trkpt lat="59.4874778297" lon="31.0138593893"><ele>58.30</ele><time>2026-08-31T19:32:14Z</time></trkpt><trkpt lat="59.4873693679" lon="31.0138492472"><ele>55.89</ele><time>2026-08-31T19:32:28Z</time></trkpt><trkpt lat="59.4872749038" lon="31.0138176475"><ele>55.89</ele><time>2026-08-31T19:32:41Z</time></trkpt><trkpt lat="59.4872212596" lon="31.0139465611"><ele>54.93</ele><time>2026-08-31T19:32:54Z</time></trkpt><trkpt lat="59.4871599041" lon="31.0140694398"><ele>55.41</ele><time>2026-08-31T19:33:06Z</time></trkpt><trkpt lat="59.4870889932" lon="31.0141479783"><ele>56.86</ele><time>2026-08-31T19:33:20Z</time></trkpt><trkpt lat="59.4869955350" lon="31.0142458789"><ele>54.45</ele><time>2026-08-31T19:33:32Z</time></trkpt><trkpt lat="59.4868852291" lon="31.0142293666"><ele>53.97</ele><time>2026-08-31T19:33:48Z</time></trkpt><trkpt lat="59.4867397193" lon="31.0142134409"><ele>52.53</ele><time>2026-08-31T19:34:03Z</time></trkpt><trkpt lat="59.4866457582" lon="31.0141606349"><ele>53.49</ele><time>2026-08-31T19:34:17Z</time></trkpt><trkpt lat="59.4865879230" lon="31.0141913965"><ele>53.97</ele><time>2026-08-31T19:34:29Z</time></trkpt><trkpt lat="59.4865361229" lon="31.0142477229"><ele>54.93</ele><time>2026-08-31T19:34:44Z</time></trkpt><trkpt lat="59.4864540640" lon="31.0142788198"><ele>54.45</ele><time>2026-08-31T19:34:57Z</time></trkpt><trkpt lat="59.4863590132" lon="31.0142701864"><ele>54.93</ele><time>2026-08-31T19:35:11Z</time></trkpt><trkpt lat="59.4862523954" lon="31.0142780654"><ele>54.45</ele><time>2026-08-31T19:35:27Z</time></trkpt><trkpt lat="59.4861639664" lon="31.0142330546"><ele>54.93</ele><time>2026-08-31T19:35:39Z</time></trkpt><trkpt lat="59.4860858470" lon="31.0141779855"><ele>54.45</ele><time>2026-08-31T19:35:50Z</time></trkpt><trkpt lat="59.4859799836" lon="31.0140446294"><ele>52.05</ele><time>2026-08-31T19:36:06Z</time></trkpt><trkpt lat="59.4859355595" lon="31.0139341559"><ele>54.45</ele><time>2026-08-31T19:36:23Z</time></trkpt><trkpt lat="59.4859348051" lon="31.0139852855"><ele>58.30</ele><time>2026-08-31T19:36:49Z</time></trkpt><trkpt lat="59.4858356472" lon="31.0138722975"><ele>55.41</ele><time>2026-08-31T19:37:09Z</time></trkpt><trkpt lat="59.4856942445" lon="31.0137557052"><ele>54.93</ele><time>2026-08-31T19:37:26Z</time></trkpt><trkpt lat="59.4855969306" lon="31.0136758257"><ele>53.49</ele><time>2026-08-31T19:37:40Z</time></trkpt><trkpt lat="59.4854339864" lon="31.0135614127"><ele>52.05</ele><time>2026-08-31T19:37:55Z</time></trkpt><trkpt lat="59.4853413664" lon="31.0134931840"><ele>51.09</ele><time>2026-08-31T19:38:09Z</time></trkpt><trkpt lat="59.4851956051" lon="31.0133789387"><ele>49.65</ele><time>2026-08-31T19:38:27Z</time></trkpt><trkpt lat="59.4851778354" lon="31.0133849736"><ele>50.13</ele><time>2026-08-31T19:38:29Z</time></trkpt><trkpt lat="59.4850961957" lon="31.0133304074"><ele>52.05</ele><time>2026-08-31T19:38:43Z</time></trkpt><trkpt lat="59.4850883167" lon="31.0133506078"><ele>52.05</ele><time>2026-08-31T19:38:45Z</time></trkpt><trkpt lat="59.4850248657" lon="31.0135397874"><ele>53.01</ele><time>2026-08-31T19:38:59Z</time></trkpt><trkpt lat="59.4849284738" lon="31.0137265362"><ele>56.37</ele><time>2026-08-31T19:39:13Z</time></trkpt><trkpt lat="59.4848089479" lon="31.0139117762"><ele>54.93</ele><time>2026-08-31T19:39:28Z</time></trkpt><trkpt lat="59.4847384561" lon="31.0140623152"><ele>50.13</ele><time>2026-08-31T19:39:41Z</time></trkpt><trkpt lat="59.4846615940" lon="31.0141695198"><ele>43.40</ele><time>2026-08-31T19:39:57Z</time></trkpt><trkpt lat="59.4846390467" lon="31.0142999422"><ele>38.59</ele><time>2026-08-31T19:40:12Z</time></trkpt><trkpt lat="59.4845476840" lon="31.0144216474"><ele>42.44</ele><time>2026-08-31T19:40:26Z</time></trkpt><trkpt lat="59.4844693970" lon="31.0145348031"><ele>41.95</ele><time>2026-08-31T19:40:42Z</time></trkpt><trkpt lat="59.4844147470" lon="31.0146399960"><ele>38.11</ele><time>2026-08-31T19:40:56Z</time></trkpt><trkpt lat="59.4843373820" lon="31.0147249047"><ele>36.67</ele><time>2026-08-31T19:41:09Z</time></trkpt><trkpt lat="59.4842269085" lon="31.0149339493"><ele>37.63</ele><time>2026-08-31T19:41:27Z</time></trkpt><trkpt lat="59.4841279183" lon="31.0151855741"><ele>46.76</ele><time>2026-08-31T19:41:41Z</time></trkpt><trkpt lat="59.4840434287" lon="31.0153880809"><ele>49.16</ele><time>2026-08-31T19:41:55Z</time></trkpt><trkpt lat="59.4839622080" lon="31.0155450739"><ele>50.13</ele><time>2026-08-31T19:42:09Z</time></trkpt><trkpt lat="59.4838906266" lon="31.0156442318"><ele>49.16</ele><time>2026-08-31T19:42:22Z</time></trkpt><trkpt lat="59.4838153571" lon="31.0157840420"><ele>45.32</ele><time>2026-08-31T19:42:37Z</time></trkpt><trkpt lat="59.4837616291" lon="31.0159189068"><ele>43.40</ele><time>2026-08-31T19:42:50Z</time></trkpt><trkpt lat="59.4836648181" lon="31.0161387641"><ele>47.72</ele><time>2026-08-31T19:43:05Z</time></trkpt><trkpt lat="59.4835666660" lon="31.0163071565"><ele>50.13</ele><time>2026-08-31T19:43:19Z</time></trkpt><trkpt lat="59.4834784046" lon="31.0164845176"><ele>47.72</ele><time>2026-08-31T19:43:35Z</time></trkpt><trkpt lat="59.4834091701" lon="31.0166018642"><ele>43.88</ele><time>2026-08-31T19:43:48Z</time></trkpt><trkpt lat="59.4833143707" lon="31.0168046225"><ele>49.16</ele><time>2026-08-31T19:44:01Z</time></trkpt><trkpt lat="59.4832062442" lon="31.0169094801"><ele>55.41</ele><time>2026-08-31T19:44:16Z</time></trkpt><trkpt lat="59.4831489958" lon="31.0171207879"><ele>57.34</ele><time>2026-08-31T19:44:29Z</time></trkpt><trkpt lat="59.4830722176" lon="31.0172211193"><ele>53.01</ele><time>2026-08-31T19:44:43Z</time></trkpt><trkpt lat="59.4830021448" lon="31.0173195228"><ele>48.68</ele><time>2026-08-31T19:44:57Z</time></trkpt><trkpt lat="59.4829618279" lon="31.0174202733"><ele>50.13</ele><time>2026-08-31T19:45:11Z</time></trkpt><trkpt lat="59.4828989636" lon="31.0175636876"><ele>53.97</ele><time>2026-08-31T19:45:24Z</time></trkpt><trkpt lat="59.4828379434" lon="31.0176627617"><ele>54.93</ele><time>2026-08-31T19:45:36Z</time></trkpt><trkpt lat="59.4827490114" lon="31.0178423021"><ele>54.93</ele><time>2026-08-31T19:45:52Z</time></trkpt><trkpt lat="59.4826852251" lon="31.0179450642"><ele>56.86</ele><time>2026-08-31T19:46:04Z</time></trkpt><trkpt lat="59.4826133922" lon="31.0180904903"><ele>57.34</ele><time>2026-08-31T19:46:18Z</time></trkpt><trkpt lat="59.4825653639" lon="31.0181648377"><ele>54.45</ele><time>2026-08-31T19:46:32Z</time></trkpt><trkpt lat="59.4825315848" lon="31.0182815976"><ele>56.37</ele><time>2026-08-31T19:46:46Z</time></trkpt><trkpt lat="59.4824652001" lon="31.0184498224"><ele>59.26</ele><time>2026-08-31T19:47:01Z</time></trkpt><trkpt lat="59.4823951274" lon="31.0185419396"><ele>57.82</ele><time>2026-08-31T19:47:12Z</time></trkpt><trkpt lat="59.4823092967" lon="31.0186986811"><ele>55.89</ele><time>2026-08-31T19:47:26Z</time></trkpt><trkpt lat="59.4822122343" lon="31.0188780539"><ele>53.49</ele><time>2026-08-31T19:47:41Z</time></trkpt><trkpt lat="59.4821096398" lon="31.0190705862"><ele>56.86</ele><time>2026-08-31T19:47:57Z</time></trkpt><trkpt lat="59.4820165168" lon="31.0192303453"><ele>57.34</ele><time>2026-08-31T19:48:11Z</time></trkpt><trkpt lat="59.4819534849" lon="31.0193936247"><ele>59.26</ele><time>2026-08-31T19:48:24Z</time></trkpt><trkpt lat="59.4818708394" lon="31.0195154138"><ele>58.30</ele><time>2026-08-31T19:48:39Z</time></trkpt><trkpt lat="59.4818192068" lon="31.0195626039"><ele>53.01</ele><time>2026-08-31T19:48:52Z</time></trkpt><trkpt lat="59.4817510620" lon="31.0196984746"><ele>47.72</ele><time>2026-08-31T19:49:10Z</time></trkpt><trkpt lat="59.4816379063" lon="31.0199179966"><ele>44.84</ele><time>2026-08-31T19:49:30Z</time></trkpt><trkpt lat="59.4815566018" lon="31.0201854631"><ele>43.88</ele><time>2026-08-31T19:49:49Z</time></trkpt><trkpt lat="59.4814403448" lon="31.0203762352"><ele>43.40</ele><time>2026-08-31T19:50:06Z</time></trkpt><trkpt lat="59.4813246746" lon="31.0205632355"><ele>43.88</ele><time>2026-08-31T19:50:22Z</time></trkpt><trkpt lat="59.4812171347" lon="31.0207150318"><ele>47.72</ele><time>2026-08-31T19:50:39Z</time></trkpt><trkpt lat="59.4810931664" lon="31.0209575202"><ele>48.20</ele><time>2026-08-31T19:50:56Z</time></trkpt><trkpt lat="59.4810705353" lon="31.0210485477"><ele>49.65</ele><time>2026-08-31T19:51:09Z</time></trkpt><trkpt lat="59.4811300468" lon="31.0210071411"><ele>51.09</ele><time>2026-08-31T19:51:21Z</time></trkpt><trkpt lat="59.4811679330" lon="31.0210189596"><ele>53.01</ele><time>2026-08-31T19:51:49Z</time></trkpt><trkpt lat="59.4811245147" lon="31.0210118350"><ele>52.53</ele><time>2026-08-31T19:52:12Z</time></trkpt><trkpt lat="59.4810982794" lon="31.0209802352"><ele>54.93</ele><time>2026-08-31T19:52:36Z</time></trkpt><trkpt lat="59.4810225908" lon="31.0211031977"><ele>54.45</ele><time>2026-08-31T19:52:52Z</time></trkpt><trkpt lat="59.4809483271" lon="31.0213295929"><ele>54.45</ele><time>2026-08-31T19:53:05Z</time></trkpt><trkpt lat="59.4809303060" lon="31.0213806387"><ele>54.45</ele><time>2026-08-31T19:53:08Z</time></trkpt><trkpt lat="59.4808233529" lon="31.0215278249"><ele>53.01</ele><time>2026-08-31T19:53:22Z</time></trkpt><trkpt lat="59.4808008056" lon="31.0216339398"><ele>51.57</ele><time>2026-08-31T19:53:33Z</time></trkpt><trkpt lat="59.4808032364" lon="31.0216537211"><ele>52.05</ele><time>2026-08-31T19:53:50Z</time></trkpt></trkseg></trk></gpx>